UAE788 ZBAA-OMDB
Flight info
| Callsign | UAE788 |
|---|---|
| Flight time | 7h 42m |
| Altitude | 36100 |
| Route | IDKEX B339 ASILA A575 UPREK W28 LAGEB W66 NUKTI B215 IBANO W187 TUSLI W112 PURPA/N0484F341 G325 GOTKO/N0485F340 G325 BIVIN R462 VUSET A454 PASOV B540 MIVEK P574 IMPED |
| Aircraft | B772/H-SDE2E3FGHIJ5LORVWXY/LB1D1 |
Departure
| Time | 2026-04-20 14:43 |
|---|---|
| Airport | Beijing Capital International Airport (ZBAA) |
Arrival
| Time | 2026-04-20 22:25 |
|---|---|
| Airport | Dubai International Airport (OMDB) |
| Time | Latitude | Longitude | Altitude | Speed | Heading |
|---|---|---|---|---|---|
| 2026-04-20 14:13 | 40.07426 | 116.60441 | 172 ft | 0 kts | 83° |
| 2026-04-20 14:28 | 40.07425 | 116.60421 | 114 ft | 3 kts | 83° |
| 2026-04-20 14:28 | 40.07426 | 116.60433 | 119 ft | 0 kts | 83° |
| 2026-04-20 14:29 | 40.07418 | 116.60390 | 117 ft | 13 kts | 66° |
| 2026-04-20 14:30 | 40.07408 | 116.60358 | 117 ft | 1 kts | 26° |
| 2026-04-20 14:30 | 40.07414 | 116.60357 | 114 ft | 1 kts | 357° |
| 2026-04-20 14:30 | 40.07422 | 116.60352 | 115 ft | 2 kts | 331° |
| 2026-04-20 14:30 | 40.07426 | 116.60349 | 115 ft | 0 kts | 331° |
| 2026-04-20 14:33 | 40.07446 | 116.60334 | 116 ft | 8 kts | 330° |
| 2026-04-20 14:33 | 40.07512 | 116.60292 | 116 ft | 11 kts | 333° |
| 2026-04-20 14:33 | 40.07572 | 116.60229 | 114 ft | 11 kts | 309° |
| 2026-04-20 14:33 | 40.07610 | 116.60143 | 118 ft | 11 kts | 293° |
| 2026-04-20 14:34 | 40.07645 | 116.60058 | 117 ft | 11 kts | 312° |
| 2026-04-20 14:34 | 40.07716 | 116.60020 | 116 ft | 11 kts | 351° |
| 2026-04-20 14:34 | 40.07793 | 116.60009 | 111 ft | 11 kts | 354° |
| 2026-04-20 14:34 | 40.07870 | 116.59999 | 117 ft | 11 kts | 354° |
| 2026-04-20 14:35 | 40.07947 | 116.59988 | 118 ft | 11 kts | 354° |
| 2026-04-20 14:35 | 40.08024 | 116.59977 | 118 ft | 11 kts | 352° |
| 2026-04-20 14:35 | 40.08105 | 116.59961 | 117 ft | 11 kts | 352° |
| 2026-04-20 14:35 | 40.08177 | 116.59947 | 118 ft | 11 kts | 352° |
| 2026-04-20 14:36 | 40.08254 | 116.59933 | 118 ft | 11 kts | 352° |
| 2026-04-20 14:36 | 40.08330 | 116.59918 | 118 ft | 11 kts | 352° |
| 2026-04-20 14:36 | 40.08407 | 116.59909 | 118 ft | 11 kts | 356° |
| 2026-04-20 14:36 | 40.08484 | 116.59902 | 119 ft | 11 kts | 355° |
| 2026-04-20 14:37 | 40.08581 | 116.59890 | 119 ft | 31 kts | 354° |
| 2026-04-20 14:37 | 40.08711 | 116.59869 | 119 ft | 15 kts | 353° |
| 2026-04-20 14:37 | 40.08813 | 116.59852 | 118 ft | 15 kts | 353° |
| 2026-04-20 14:37 | 40.08917 | 116.59835 | 120 ft | 15 kts | 353° |
| 2026-04-20 14:38 | 40.08995 | 116.59766 | 119 ft | 15 kts | 290° |
| 2026-04-20 14:38 | 40.08988 | 116.59679 | 120 ft | 8 kts | 257° |
| 2026-04-20 14:38 | 40.08985 | 116.59659 | 118 ft | 0 kts | 258° |
| 2026-04-20 14:41 | 40.08977 | 116.59610 | 121 ft | 9 kts | 258° |
| 2026-04-20 14:41 | 40.08936 | 116.59524 | 119 ft | 14 kts | 222° |
| 2026-04-20 14:41 | 40.08852 | 116.59496 | 120 ft | 12 kts | 176° |
| 2026-04-20 14:41 | 40.08845 | 116.59497 | 119 ft | 0 kts | 173° |
| 2026-04-20 14:42 | 40.08695 | 116.59519 | 119 ft | 64 kts | 173° |
| 2026-04-20 14:42 | 40.07938 | 116.59635 | 116 ft | 152 kts | 172° |
| 2026-04-20 14:43 | 40.06696 | 116.59840 | 512 ft | 190 kts | 175° |
| 2026-04-20 14:43 | 40.05374 | 116.60065 | 1697 ft | 197 kts | 179° |
| 2026-04-20 14:43 | 40.04459 | 116.60202 | 2248 ft | 199 kts | 179° |
| 2026-04-20 14:43 | 40.03065 | 116.60411 | 2897 ft | 207 kts | 178° |
| 2026-04-20 14:44 | 40.01550 | 116.60637 | 3123 ft | 236 kts | 177° |
| 2026-04-20 14:44 | 39.99804 | 116.60901 | 3132 ft | 264 kts | 176° |
| 2026-04-20 14:44 | 39.97929 | 116.61199 | 3615 ft | 271 kts | 176° |
| 2026-04-20 14:44 | 39.96040 | 116.61503 | 3900 ft | 274 kts | 176° |
| 2026-04-20 14:45 | 39.94149 | 116.61809 | 3881 ft | 273 kts | 176° |
| 2026-04-20 14:45 | 39.92265 | 116.62112 | 3889 ft | 272 kts | 176° |
| 2026-04-20 14:45 | 39.90409 | 116.62409 | 3885 ft | 272 kts | 176° |
| 2026-04-20 14:45 | 39.88504 | 116.62713 | 3942 ft | 273 kts | 176° |
| 2026-04-20 14:46 | 39.86646 | 116.63181 | 4540 ft | 278 kts | 160° |
| 2026-04-20 14:46 | 39.85042 | 116.64722 | 5246 ft | 288 kts | 127° |
| 2026-04-20 14:46 | 39.84301 | 116.67032 | 6052 ft | 287 kts | 94° |
| 2026-04-20 14:46 | 39.84434 | 116.69598 | 6718 ft | 285 kts | 77° |
| 2026-04-20 14:47 | 39.84744 | 116.72192 | 6899 ft | 294 kts | 79° |
| 2026-04-20 14:47 | 39.85037 | 116.74820 | 6891 ft | 292 kts | 79° |
| 2026-04-20 14:47 | 39.85306 | 116.77254 | 6888 ft | 285 kts | 78° |
| 2026-04-20 14:48 | 39.85884 | 116.82427 | 6905 ft | 295 kts | 79° |
| 2026-04-20 14:48 | 39.86180 | 116.85057 | 6887 ft | 292 kts | 79° |
| 2026-04-20 14:48 | 39.86470 | 116.87659 | 6891 ft | 288 kts | 79° |
| 2026-04-20 14:48 | 39.86756 | 116.90227 | 6887 ft | 285 kts | 79° |
| 2026-04-20 14:49 | 39.87037 | 116.92773 | 6896 ft | 284 kts | 79° |
| 2026-04-20 14:49 | 39.87319 | 116.95323 | 7373 ft | 288 kts | 78° |
| 2026-04-20 14:49 | 39.87607 | 116.97923 | 8041 ft | 294 kts | 78° |
| 2026-04-20 14:49 | 39.87901 | 117.00596 | 8799 ft | 298 kts | 77° |
| 2026-04-20 14:50 | 39.88195 | 117.03285 | 9565 ft | 302 kts | 77° |
| 2026-04-20 14:50 | 39.88550 | 117.05977 | 10242 ft | 300 kts | 67° |
| 2026-04-20 14:50 | 39.89575 | 117.08336 | 10512 ft | 306 kts | 40° |
| 2026-04-20 14:50 | 39.91364 | 117.09868 | 10678 ft | 316 kts | 14° |
| 2026-04-20 14:51 | 39.93566 | 117.10295 | 10853 ft | 328 kts | 353° |
| 2026-04-20 14:51 | 39.95872 | 117.09907 | 11104 ft | 343 kts | 348° |
| 2026-04-20 14:51 | 39.98156 | 117.09465 | 11630 ft | 354 kts | 349° |
| 2026-04-20 14:51 | 40.00629 | 117.09014 | 12298 ft | 362 kts | 349° |
| 2026-04-20 14:52 | 40.03145 | 117.08568 | 13041 ft | 368 kts | 349° |
| 2026-04-20 14:52 | 40.05745 | 117.08092 | 13776 ft | 374 kts | 349° |
| 2026-04-20 14:52 | 40.08290 | 117.07619 | 14435 ft | 378 kts | 349° |
| 2026-04-20 14:52 | 40.10903 | 117.07132 | 15163 ft | 380 kts | 349° |
| 2026-04-20 14:53 | 40.13515 | 117.06647 | 15910 ft | 381 kts | 348° |
| 2026-04-20 14:53 | 40.16151 | 117.06159 | 16708 ft | 381 kts | 348° |
| 2026-04-20 14:53 | 40.18781 | 117.05671 | 17330 ft | 386 kts | 348° |
| 2026-04-20 14:53 | 40.21465 | 117.05172 | 17929 ft | 390 kts | 348° |
| 2026-04-20 14:54 | 40.24169 | 117.04671 | 18522 ft | 393 kts | 348° |
| 2026-04-20 14:54 | 40.26885 | 117.04168 | 19063 ft | 396 kts | 347° |
| 2026-04-20 14:54 | 40.29620 | 117.03661 | 19611 ft | 398 kts | 347° |
| 2026-04-20 14:54 | 40.32372 | 117.03149 | 19727 ft | 400 kts | 347° |
| 2026-04-20 14:55 | 40.35125 | 117.02673 | 19755 ft | 399 kts | 349° |
| 2026-04-20 14:55 | 40.37889 | 117.02342 | 19820 ft | 402 kts | 350° |
| 2026-04-20 14:55 | 40.40694 | 117.02058 | 20337 ft | 404 kts | 350° |
| 2026-04-20 14:55 | 40.43499 | 117.01767 | 20959 ft | 404 kts | 349° |
| 2026-04-20 14:56 | 40.46304 | 117.01453 | 21511 ft | 406 kts | 349° |
| 2026-04-20 14:56 | 40.49126 | 117.01125 | 21975 ft | 408 kts | 348° |
| 2026-04-20 14:56 | 40.51868 | 117.00394 | 22235 ft | 399 kts | 332° |
| 2026-04-20 14:56 | 40.54264 | 116.98626 | 22656 ft | 394 kts | 319° |
| 2026-04-20 14:57 | 40.56266 | 116.96217 | 23307 ft | 387 kts | 307° |
| 2026-04-20 14:57 | 40.57878 | 116.93408 | 23853 ft | 385 kts | 303° |
| 2026-04-20 14:57 | 40.59353 | 116.90658 | 24289 ft | 385 kts | 302° |
| 2026-04-20 14:57 | 40.60890 | 116.87768 | 24797 ft | 384 kts | 302° |
| 2026-04-20 14:58 | 40.62426 | 116.84902 | 25386 ft | 381 kts | 303° |
| 2026-04-20 14:58 | 40.63960 | 116.82064 | 25949 ft | 379 kts | 303° |
| 2026-04-20 14:58 | 40.65493 | 116.79248 | 26463 ft | 378 kts | 302° |
| 2026-04-20 14:58 | 40.67005 | 116.76480 | 26943 ft | 377 kts | 302° |
| 2026-04-20 14:59 | 40.68536 | 116.73675 | 27396 ft | 375 kts | 302° |
| 2026-04-20 14:59 | 40.70239 | 116.71049 | 27765 ft | 382 kts | 311° |
| 2026-04-20 14:59 | 40.72186 | 116.68892 | 28075 ft | 388 kts | 316° |
| 2026-04-20 14:59 | 40.74395 | 116.66817 | 28504 ft | 391 kts | 319° |
| 2026-04-20 15:00 | 40.76752 | 116.64985 | 28961 ft | 397 kts | 324° |
| 2026-04-20 15:00 | 40.79287 | 116.63490 | 29381 ft | 399 kts | 326° |
| 2026-04-20 15:00 | 40.81845 | 116.62038 | 29679 ft | 401 kts | 326° |
| 2026-04-20 15:00 | 40.84417 | 116.60585 | 30020 ft | 403 kts | 326° |
| 2026-04-20 15:01 | 40.87002 | 116.59120 | 30257 ft | 404 kts | 326° |
| 2026-04-20 15:01 | 40.89583 | 116.57651 | 30543 ft | 403 kts | 326° |
| 2026-04-20 15:01 | 40.92188 | 116.56162 | 30864 ft | 402 kts | 326° |
| 2026-04-20 15:01 | 40.94715 | 116.54711 | 31193 ft | 400 kts | 325° |
| 2026-04-20 15:02 | 40.97264 | 116.53241 | 31500 ft | 399 kts | 325° |
| 2026-04-20 15:02 | 40.99810 | 116.51768 | 31785 ft | 399 kts | 325° |
| 2026-04-20 15:02 | 41.02344 | 116.50300 | 32077 ft | 398 kts | 324° |
| 2026-04-20 15:02 | 41.04881 | 116.48829 | 32363 ft | 398 kts | 324° |
| 2026-04-20 15:03 | 41.07419 | 116.47356 | 32620 ft | 399 kts | 325° |
| 2026-04-20 15:03 | 41.12543 | 116.44365 | 32998 ft | 402 kts | 325° |
| 2026-04-20 15:03 | 41.15101 | 116.42884 | 33261 ft | 400 kts | 325° |
| 2026-04-20 15:04 | 41.17652 | 116.41410 | 33514 ft | 400 kts | 324° |
| 2026-04-20 15:04 | 41.20197 | 116.39923 | 33754 ft | 399 kts | 324° |
| 2026-04-20 15:04 | 41.22737 | 116.38438 | 34024 ft | 399 kts | 324° |
| 2026-04-20 15:04 | 41.25278 | 116.36951 | 34256 ft | 399 kts | 324° |
| 2026-04-20 15:05 | 41.27816 | 116.35462 | 34440 ft | 399 kts | 324° |
| 2026-04-20 15:05 | 41.30364 | 116.33973 | 34611 ft | 401 kts | 325° |
| 2026-04-20 15:05 | 41.32925 | 116.32476 | 34755 ft | 402 kts | 325° |
| 2026-04-20 15:05 | 41.35483 | 116.30981 | 34943 ft | 402 kts | 325° |
| 2026-04-20 15:06 | 41.38049 | 116.29471 | 35129 ft | 402 kts | 325° |
| 2026-04-20 15:06 | 41.40604 | 116.27970 | 35338 ft | 402 kts | 325° |
| 2026-04-20 15:06 | 41.43169 | 116.26466 | 35507 ft | 403 kts | 325° |
| 2026-04-20 15:06 | 41.45733 | 116.24959 | 35684 ft | 403 kts | 325° |
| 2026-04-20 15:07 | 41.48300 | 116.23450 | 35887 ft | 403 kts | 325° |
| 2026-04-20 15:07 | 41.53460 | 116.20408 | 36064 ft | 408 kts | 326° |
| 2026-04-20 15:08 | 41.58633 | 116.17355 | 36055 ft | 408 kts | 326° |
| 2026-04-20 15:08 | 41.63819 | 116.14297 | 36066 ft | 402 kts | 326° |
| 2026-04-20 15:09 | 41.68879 | 116.11302 | 36159 ft | 399 kts | 325° |
| 2026-04-20 15:09 | 41.73955 | 116.08285 | 36227 ft | 399 kts | 326° |
| 2026-04-20 15:10 | 41.79058 | 116.05248 | 36176 ft | 402 kts | 326° |
| 2026-04-20 15:10 | 41.84186 | 116.02195 | 36175 ft | 404 kts | 326° |
| 2026-04-20 15:11 | 41.89241 | 115.99181 | 36177 ft | 405 kts | 326° |
| 2026-04-20 15:11 | 41.93986 | 115.95440 | 36183 ft | 388 kts | 312° |
| 2026-04-20 15:12 | 41.97748 | 115.90302 | 36208 ft | 386 kts | 304° |
| 2026-04-20 15:12 | 42.00484 | 115.84128 | 36180 ft | 387 kts | 296° |
| 2026-04-20 15:13 | 42.03032 | 115.77697 | 36179 ft | 391 kts | 296° |
| 2026-04-20 15:13 | 42.05615 | 115.71231 | 36174 ft | 394 kts | 296° |
| 2026-04-20 15:14 | 42.08220 | 115.64754 | 36165 ft | 392 kts | 296° |
| 2026-04-20 15:14 | 42.10788 | 115.58373 | 36172 ft | 384 kts | 296° |
| 2026-04-20 15:15 | 42.13325 | 115.52050 | 36176 ft | 384 kts | 296° |
| 2026-04-20 15:15 | 42.15266 | 115.45401 | 36184 ft | 382 kts | 286° |
| 2026-04-20 15:16 | 42.16385 | 115.38386 | 36180 ft | 384 kts | 280° |
| 2026-04-20 15:16 | 42.16686 | 115.31358 | 36170 ft | 383 kts | 276° |
| 2026-04-20 15:17 | 42.16847 | 115.24148 | 36182 ft | 386 kts | 276° |
| 2026-04-20 15:17 | 42.17011 | 115.16880 | 36179 ft | 389 kts | 276° |
| 2026-04-20 15:18 | 42.17187 | 115.09584 | 36176 ft | 391 kts | 276° |
| 2026-04-20 15:18 | 42.17368 | 115.02252 | 36169 ft | 390 kts | 276° |
| 2026-04-20 15:19 | 42.17542 | 114.95100 | 36180 ft | 388 kts | 276° |
| 2026-04-20 15:19 | 42.17715 | 114.87835 | 36182 ft | 387 kts | 276° |
| 2026-04-20 15:20 | 42.17884 | 114.80605 | 36165 ft | 386 kts | 276° |
| 2026-04-20 15:20 | 42.18021 | 114.74561 | 36179 ft | 385 kts | 276° |
| 2026-04-20 15:21 | 42.18181 | 114.67357 | 36184 ft | 384 kts | 276° |
| 2026-04-20 15:21 | 42.18336 | 114.60169 | 36183 ft | 384 kts | 275° |
| 2026-04-20 15:22 | 42.18486 | 114.52976 | 36180 ft | 383 kts | 275° |
| 2026-04-20 15:22 | 42.18632 | 114.45796 | 36185 ft | 383 kts | 275° |
| 2026-04-20 15:23 | 42.18773 | 114.38617 | 36176 ft | 383 kts | 275° |
| 2026-04-20 15:23 | 42.18910 | 114.31417 | 36173 ft | 384 kts | 275° |
| 2026-04-20 15:24 | 42.19041 | 114.24256 | 36186 ft | 384 kts | 275° |
| 2026-04-20 15:24 | 42.19170 | 114.17038 | 36192 ft | 385 kts | 275° |
| 2026-04-20 15:25 | 42.19293 | 114.09818 | 36174 ft | 384 kts | 275° |
| 2026-04-20 15:25 | 42.19411 | 114.02631 | 36180 ft | 383 kts | 275° |
| 2026-04-20 15:26 | 42.19523 | 113.95579 | 36180 ft | 382 kts | 275° |
| 2026-04-20 15:26 | 42.19632 | 113.88429 | 36185 ft | 381 kts | 275° |
| 2026-04-20 15:27 | 42.19737 | 113.81278 | 36183 ft | 381 kts | 275° |
| 2026-04-20 15:27 | 42.19837 | 113.74133 | 36182 ft | 381 kts | 275° |
| 2026-04-20 15:28 | 42.19933 | 113.66981 | 36184 ft | 381 kts | 275° |
| 2026-04-20 15:28 | 42.20025 | 113.59836 | 36180 ft | 381 kts | 275° |
| 2026-04-20 15:29 | 42.20112 | 113.52697 | 36183 ft | 381 kts | 275° |
| 2026-04-20 15:29 | 42.20194 | 113.45534 | 36185 ft | 381 kts | 275° |
| 2026-04-20 15:30 | 42.20272 | 113.38380 | 36178 ft | 382 kts | 275° |
| 2026-04-20 15:30 | 42.20346 | 113.31267 | 36183 ft | 382 kts | 275° |
| 2026-04-20 15:31 | 42.20415 | 113.24104 | 36183 ft | 382 kts | 275° |
| 2026-04-20 15:31 | 42.20480 | 113.16955 | 36154 ft | 380 kts | 274° |
| 2026-04-20 15:32 | 42.20539 | 113.09837 | 36198 ft | 378 kts | 275° |
| 2026-04-20 15:32 | 42.20594 | 113.02751 | 36186 ft | 378 kts | 275° |
| 2026-04-20 15:33 | 42.20645 | 112.95806 | 36185 ft | 377 kts | 275° |
| 2026-04-20 15:33 | 42.20692 | 112.88957 | 36193 ft | 374 kts | 274° |
| 2026-04-20 15:34 | 42.20733 | 112.81920 | 36200 ft | 376 kts | 274° |
| 2026-04-20 15:34 | 42.20770 | 112.74841 | 36190 ft | 378 kts | 274° |
| 2026-04-20 15:35 | 42.20804 | 112.67742 | 36192 ft | 379 kts | 274° |
| 2026-04-20 15:35 | 42.20834 | 112.60630 | 36189 ft | 380 kts | 274° |
| 2026-04-20 15:36 | 42.20859 | 112.53523 | 36184 ft | 380 kts | 274° |
| 2026-04-20 15:36 | 42.20879 | 112.46401 | 36189 ft | 380 kts | 274° |
| 2026-04-20 15:37 | 42.20896 | 112.39259 | 36188 ft | 381 kts | 274° |
| 2026-04-20 15:37 | 42.20908 | 112.32110 | 36186 ft | 381 kts | 274° |
| 2026-04-20 15:38 | 42.20916 | 112.24961 | 36163 ft | 381 kts | 274° |
| 2026-04-20 15:38 | 42.20918 | 112.17845 | 36174 ft | 378 kts | 274° |
| 2026-04-20 15:39 | 42.20916 | 112.10764 | 36186 ft | 377 kts | 274° |
| 2026-04-20 15:39 | 42.20911 | 112.03695 | 36184 ft | 377 kts | 274° |
| 2026-04-20 15:40 | 42.20902 | 111.96761 | 36184 ft | 376 kts | 274° |
| 2026-04-20 15:40 | 42.20888 | 111.89695 | 36182 ft | 376 kts | 274° |
| 2026-04-20 15:41 | 42.20870 | 111.82631 | 36189 ft | 376 kts | 274° |
| 2026-04-20 15:41 | 42.20847 | 111.75560 | 36176 ft | 377 kts | 274° |
| 2026-04-20 15:42 | 42.20820 | 111.68529 | 36187 ft | 377 kts | 274° |
| 2026-04-20 15:42 | 42.20789 | 111.61444 | 36185 ft | 378 kts | 274° |
| 2026-04-20 15:43 | 42.20753 | 111.54342 | 36200 ft | 379 kts | 274° |
| 2026-04-20 15:43 | 42.20713 | 111.47234 | 36200 ft | 379 kts | 274° |
| 2026-04-20 15:44 | 42.20669 | 111.40120 | 36177 ft | 379 kts | 273° |
| 2026-04-20 15:44 | 42.20619 | 111.32992 | 36190 ft | 380 kts | 273° |
| 2026-04-20 15:45 | 42.20150 | 111.25864 | 36191 ft | 383 kts | 267° |
| 2026-04-20 15:45 | 42.19378 | 111.18760 | 36196 ft | 383 kts | 267° |
| 2026-04-20 15:46 | 42.18613 | 111.11654 | 36177 ft | 383 kts | 267° |
| 2026-04-20 15:46 | 42.17847 | 111.04548 | 36189 ft | 383 kts | 267° |
| 2026-04-20 15:47 | 42.17092 | 110.97568 | 36193 ft | 383 kts | 267° |
| 2026-04-20 15:47 | 42.16318 | 110.90453 | 36191 ft | 384 kts | 267° |
| 2026-04-20 15:48 | 42.15539 | 110.83340 | 36194 ft | 383 kts | 267° |
| 2026-04-20 15:48 | 42.14756 | 110.76226 | 36185 ft | 384 kts | 266° |
| 2026-04-20 15:49 | 42.13968 | 110.69112 | 36195 ft | 384 kts | 266° |
| 2026-04-20 15:49 | 42.13175 | 110.61993 | 36168 ft | 384 kts | 266° |
| 2026-04-20 15:50 | 42.12378 | 110.54874 | 36180 ft | 385 kts | 266° |
| 2026-04-20 15:50 | 42.11580 | 110.47795 | 36197 ft | 385 kts | 266° |
| 2026-04-20 15:51 | 42.10768 | 110.40625 | 36192 ft | 385 kts | 266° |
| 2026-04-20 15:51 | 42.09955 | 110.33494 | 36204 ft | 386 kts | 266° |
| 2026-04-20 15:52 | 42.09142 | 110.26396 | 36193 ft | 386 kts | 266° |
| 2026-04-20 15:52 | 42.08316 | 110.19240 | 36205 ft | 386 kts | 266° |
| 2026-04-20 15:53 | 42.07072 | 110.08523 | 36192 ft | 386 kts | 266° |
| 2026-04-20 15:53 | 42.06231 | 110.01330 | 36201 ft | 386 kts | 266° |
| 2026-04-20 15:54 | 42.05404 | 109.94288 | 36269 ft | 388 kts | 265° |
| 2026-04-20 15:54 | 42.04981 | 109.90707 | 36473 ft | 387 kts | 265° |
| 2026-04-20 15:54 | 42.04563 | 109.87178 | 36695 ft | 386 kts | 265° |
| 2026-04-20 15:55 | 42.04140 | 109.83617 | 36908 ft | 385 kts | 265° |
| 2026-04-20 15:55 | 42.03716 | 109.80054 | 37088 ft | 385 kts | 265° |
| 2026-04-20 15:55 | 42.03292 | 109.76497 | 37221 ft | 386 kts | 265° |
| 2026-04-20 15:55 | 42.02866 | 109.72933 | 37388 ft | 386 kts | 265° |
| 2026-04-20 15:56 | 42.02439 | 109.69379 | 37575 ft | 385 kts | 265° |
| 2026-04-20 15:56 | 42.02010 | 109.65810 | 37740 ft | 385 kts | 265° |
| 2026-04-20 15:56 | 42.01582 | 109.62268 | 37898 ft | 385 kts | 265° |
| 2026-04-20 15:56 | 42.01151 | 109.58702 | 38012 ft | 386 kts | 265° |
| 2026-04-20 15:57 | 42.00285 | 109.51562 | 38103 ft | 387 kts | 265° |
| 2026-04-20 15:57 | 41.99416 | 109.44455 | 37887 ft | 383 kts | 265° |
| 2026-04-20 15:58 | 41.99128 | 109.42109 | 37590 ft | 384 kts | 265° |
| 2026-04-20 15:58 | 41.98692 | 109.38554 | 37073 ft | 386 kts | 265° |
| 2026-04-20 15:58 | 41.98254 | 109.34989 | 36608 ft | 387 kts | 265° |
| 2026-04-20 15:58 | 41.97813 | 109.31418 | 36275 ft | 387 kts | 265° |
| 2026-04-20 15:59 | 41.96925 | 109.24252 | 36471 ft | 389 kts | 265° |
| 2026-04-20 15:59 | 41.96479 | 109.20662 | 36638 ft | 390 kts | 265° |
| 2026-04-20 15:59 | 41.96030 | 109.17069 | 36752 ft | 391 kts | 265° |
| 2026-04-20 16:00 | 41.95124 | 109.09829 | 36711 ft | 394 kts | 264° |
| 2026-04-20 16:00 | 41.94214 | 109.02626 | 36468 ft | 388 kts | 264° |
| 2026-04-20 16:01 | 41.93777 | 108.99167 | 36270 ft | 389 kts | 264° |
| 2026-04-20 16:01 | 41.93322 | 108.95576 | 36274 ft | 392 kts | 264° |
| 2026-04-20 16:01 | 41.92393 | 108.88257 | 36167 ft | 395 kts | 264° |
| 2026-04-20 16:02 | 41.91464 | 108.81001 | 36489 ft | 393 kts | 264° |
| 2026-04-20 16:02 | 41.90999 | 108.77387 | 36750 ft | 391 kts | 264° |
| 2026-04-20 16:02 | 41.90536 | 108.73788 | 36917 ft | 391 kts | 264° |
| 2026-04-20 16:03 | 41.90071 | 108.70187 | 37137 ft | 390 kts | 264° |
| 2026-04-20 16:03 | 41.89606 | 108.66601 | 37371 ft | 389 kts | 264° |
| 2026-04-20 16:03 | 41.89143 | 108.63032 | 37521 ft | 389 kts | 264° |
| 2026-04-20 16:03 | 41.88677 | 108.59442 | 37579 ft | 392 kts | 264° |
| 2026-04-20 16:04 | 41.88208 | 108.55838 | 37747 ft | 392 kts | 264° |
| 2026-04-20 16:04 | 41.87737 | 108.52237 | 37975 ft | 390 kts | 264° |
| 2026-04-20 16:04 | 41.86794 | 108.45048 | 38095 ft | 392 kts | 264° |
| 2026-04-20 16:05 | 41.85842 | 108.37827 | 38112 ft | 393 kts | 264° |
| 2026-04-20 16:05 | 41.84884 | 108.30605 | 38128 ft | 393 kts | 264° |
| 2026-04-20 16:06 | 41.83929 | 108.23438 | 38124 ft | 393 kts | 264° |
| 2026-04-20 16:06 | 41.82964 | 108.16228 | 38126 ft | 393 kts | 264° |
| 2026-04-20 16:07 | 41.81994 | 108.09022 | 38207 ft | 391 kts | 264° |
| 2026-04-20 16:07 | 41.81026 | 108.01860 | 38208 ft | 391 kts | 264° |
| 2026-04-20 16:08 | 41.80068 | 107.94812 | 38219 ft | 391 kts | 263° |
| 2026-04-20 16:08 | 41.79090 | 107.87647 | 38216 ft | 391 kts | 263° |
| 2026-04-20 16:09 | 41.78105 | 107.80466 | 38209 ft | 391 kts | 263° |
| 2026-04-20 16:09 | 41.77118 | 107.73303 | 38206 ft | 391 kts | 263° |
| 2026-04-20 16:10 | 41.76124 | 107.66128 | 38213 ft | 392 kts | 263° |
| 2026-04-20 16:10 | 41.75123 | 107.58937 | 38211 ft | 392 kts | 263° |
| 2026-04-20 16:11 | 41.74124 | 107.51791 | 38206 ft | 393 kts | 263° |
| 2026-04-20 16:11 | 41.73113 | 107.44596 | 38215 ft | 393 kts | 263° |
| 2026-04-20 16:12 | 41.72098 | 107.37406 | 38208 ft | 393 kts | 263° |
| 2026-04-20 16:12 | 41.71079 | 107.30225 | 38215 ft | 393 kts | 263° |
| 2026-04-20 16:13 | 41.70055 | 107.23035 | 38220 ft | 393 kts | 263° |
| 2026-04-20 16:13 | 41.69018 | 107.15793 | 38232 ft | 394 kts | 263° |
| 2026-04-20 16:14 | 41.67981 | 107.08586 | 38227 ft | 395 kts | 263° |
| 2026-04-20 16:14 | 41.67090 | 107.01308 | 38225 ft | 393 kts | 268° |
| 2026-04-20 16:15 | 41.66705 | 106.94162 | 38221 ft | 394 kts | 268° |
| 2026-04-20 16:15 | 41.66283 | 106.86894 | 38232 ft | 395 kts | 268° |
| 2026-04-20 16:16 | 41.65843 | 106.79506 | 38227 ft | 396 kts | 268° |
| 2026-04-20 16:16 | 41.65402 | 106.72212 | 38231 ft | 396 kts | 268° |
| 2026-04-20 16:17 | 41.64953 | 106.64861 | 38242 ft | 396 kts | 268° |
| 2026-04-20 16:17 | 41.64500 | 106.57502 | 38222 ft | 397 kts | 267° |
| 2026-04-20 16:18 | 41.64042 | 106.50156 | 38221 ft | 397 kts | 267° |
| 2026-04-20 16:18 | 41.63580 | 106.42801 | 38239 ft | 396 kts | 267° |
| 2026-04-20 16:19 | 41.63114 | 106.35467 | 38221 ft | 396 kts | 267° |
| 2026-04-20 16:19 | 41.62646 | 106.28177 | 38226 ft | 396 kts | 267° |
| 2026-04-20 16:20 | 41.62170 | 106.20843 | 38239 ft | 396 kts | 266° |
| 2026-04-20 16:20 | 41.61689 | 106.13496 | 38236 ft | 397 kts | 266° |
| 2026-04-20 16:21 | 41.61202 | 106.06132 | 38234 ft | 397 kts | 266° |
| 2026-04-20 16:21 | 41.60778 | 105.99780 | 38235 ft | 397 kts | 266° |
| 2026-04-20 16:22 | 41.60284 | 105.92443 | 38230 ft | 398 kts | 266° |
| 2026-04-20 16:22 | 41.59787 | 105.85122 | 38229 ft | 398 kts | 266° |
| 2026-04-20 16:23 | 41.59281 | 105.77749 | 38233 ft | 398 kts | 266° |
| 2026-04-20 16:23 | 41.58770 | 105.70379 | 38224 ft | 398 kts | 266° |
| 2026-04-20 16:24 | 41.58259 | 105.63071 | 38222 ft | 398 kts | 266° |
| 2026-04-20 16:24 | 41.57735 | 105.55652 | 38225 ft | 398 kts | 266° |
| 2026-04-20 16:25 | 41.57211 | 105.48291 | 38220 ft | 398 kts | 266° |
| 2026-04-20 16:25 | 41.56682 | 105.40923 | 38185 ft | 398 kts | 266° |
| 2026-04-20 16:26 | 41.56149 | 105.33578 | 38206 ft | 397 kts | 266° |
| 2026-04-20 16:26 | 41.55612 | 105.26235 | 38216 ft | 397 kts | 265° |
| 2026-04-20 16:27 | 41.55070 | 105.18893 | 38213 ft | 397 kts | 265° |
| 2026-04-20 16:27 | 41.54522 | 105.11547 | 38213 ft | 397 kts | 265° |
| 2026-04-20 16:28 | 41.53971 | 105.04206 | 38214 ft | 397 kts | 265° |
| 2026-04-20 16:28 | 41.53427 | 104.97031 | 38209 ft | 397 kts | 265° |
| 2026-04-20 16:29 | 41.52868 | 104.89692 | 38210 ft | 397 kts | 265° |
| 2026-04-20 16:29 | 41.52302 | 104.82349 | 38213 ft | 398 kts | 265° |
| 2026-04-20 16:30 | 41.51731 | 104.75014 | 38211 ft | 398 kts | 265° |
| 2026-04-20 16:30 | 41.51155 | 104.67665 | 38212 ft | 398 kts | 265° |
| 2026-04-20 16:31 | 41.50405 | 104.60354 | 38213 ft | 398 kts | 261° |
| 2026-04-20 16:31 | 41.49381 | 104.53077 | 38206 ft | 399 kts | 261° |
| 2026-04-20 16:32 | 41.48516 | 104.47036 | 38170 ft | 399 kts | 261° |
| 2026-04-20 16:32 | 41.47489 | 104.39779 | 38205 ft | 399 kts | 261° |
| 2026-04-20 16:33 | 41.46466 | 104.32508 | 38205 ft | 399 kts | 261° |
| 2026-04-20 16:33 | 41.45440 | 104.25221 | 38205 ft | 400 kts | 261° |
| 2026-04-20 16:34 | 41.44410 | 104.17932 | 38206 ft | 400 kts | 261° |
| 2026-04-20 16:34 | 41.43381 | 104.10683 | 38202 ft | 400 kts | 261° |
| 2026-04-20 16:35 | 41.42339 | 104.03381 | 38201 ft | 400 kts | 261° |
| 2026-04-20 16:35 | 41.41316 | 103.96238 | 38194 ft | 400 kts | 261° |
| 2026-04-20 16:36 | 41.40267 | 103.88957 | 38191 ft | 400 kts | 261° |
| 2026-04-20 16:36 | 41.39214 | 103.81680 | 38195 ft | 400 kts | 261° |
| 2026-04-20 16:37 | 41.38158 | 103.74412 | 38191 ft | 400 kts | 261° |
| 2026-04-20 16:37 | 41.37096 | 103.67140 | 38177 ft | 399 kts | 260° |
| 2026-04-20 16:38 | 41.36032 | 103.59888 | 38179 ft | 399 kts | 260° |
| 2026-04-20 16:38 | 41.34964 | 103.52640 | 38186 ft | 399 kts | 260° |
| 2026-04-20 16:39 | 41.33890 | 103.45389 | 38188 ft | 400 kts | 260° |
| 2026-04-20 16:39 | 41.32810 | 103.38126 | 38185 ft | 400 kts | 260° |
| 2026-04-20 16:40 | 41.31725 | 103.30866 | 38176 ft | 400 kts | 260° |
| 2026-04-20 16:40 | 41.30635 | 103.23603 | 38181 ft | 401 kts | 260° |
| 2026-04-20 16:41 | 41.29544 | 103.16366 | 38177 ft | 401 kts | 260° |
| 2026-04-20 16:41 | 41.28442 | 103.09094 | 38184 ft | 401 kts | 259° |
| 2026-04-20 16:42 | 41.27335 | 103.01816 | 38171 ft | 401 kts | 259° |
| 2026-04-20 16:42 | 41.26243 | 102.94671 | 38171 ft | 402 kts | 259° |
| 2026-04-20 16:43 | 41.25128 | 102.87401 | 38161 ft | 401 kts | 259° |
| 2026-04-20 16:43 | 41.24007 | 102.80136 | 38175 ft | 401 kts | 259° |
| 2026-04-20 16:44 | 41.22884 | 102.72884 | 38154 ft | 402 kts | 259° |
| 2026-04-20 16:44 | 41.21749 | 102.65582 | 38152 ft | 402 kts | 259° |
| 2026-04-20 16:45 | 41.20606 | 102.58266 | 38152 ft | 402 kts | 259° |
| 2026-04-20 16:45 | 41.19472 | 102.51041 | 38158 ft | 402 kts | 259° |
| 2026-04-20 16:46 | 41.18325 | 102.43760 | 38153 ft | 402 kts | 259° |
| 2026-04-20 16:46 | 41.17174 | 102.36489 | 38153 ft | 402 kts | 259° |
| 2026-04-20 16:47 | 41.16019 | 102.29224 | 38143 ft | 403 kts | 258° |
| 2026-04-20 16:47 | 41.14857 | 102.21942 | 38145 ft | 403 kts | 258° |
| 2026-04-20 16:48 | 41.13689 | 102.14656 | 38143 ft | 403 kts | 258° |
| 2026-04-20 16:48 | 41.12520 | 102.07394 | 38135 ft | 403 kts | 258° |
| 2026-04-20 16:49 | 41.11351 | 102.00167 | 38137 ft | 403 kts | 258° |
| 2026-04-20 16:49 | 41.10195 | 101.93046 | 38130 ft | 403 kts | 258° |
| 2026-04-20 16:50 | 41.09010 | 101.85782 | 38127 ft | 403 kts | 258° |
| 2026-04-20 16:50 | 41.07820 | 101.78513 | 38122 ft | 403 kts | 258° |
| 2026-04-20 16:51 | 41.06626 | 101.71250 | 38123 ft | 403 kts | 258° |
| 2026-04-20 16:51 | 41.05426 | 101.63985 | 38102 ft | 404 kts | 258° |
| 2026-04-20 16:52 | 41.04221 | 101.56712 | 38117 ft | 404 kts | 258° |
| 2026-04-20 16:52 | 41.03009 | 101.49433 | 38118 ft | 405 kts | 258° |
| 2026-04-20 16:53 | 41.01790 | 101.42140 | 38115 ft | 405 kts | 257° |
| 2026-04-20 16:53 | 41.00566 | 101.34852 | 38115 ft | 405 kts | 257° |
| 2026-04-20 16:54 | 40.99343 | 101.27593 | 38106 ft | 405 kts | 257° |
| 2026-04-20 16:54 | 40.98110 | 101.20308 | 38116 ft | 405 kts | 257° |
| 2026-04-20 16:55 | 40.96872 | 101.13029 | 38108 ft | 406 kts | 257° |
| 2026-04-20 16:55 | 40.95628 | 101.05739 | 38108 ft | 406 kts | 257° |
| 2026-04-20 16:56 | 40.94405 | 100.98600 | 38114 ft | 407 kts | 257° |
| 2026-04-20 16:56 | 40.93148 | 100.91293 | 38113 ft | 407 kts | 257° |
| 2026-04-20 16:57 | 40.91895 | 100.84038 | 38113 ft | 407 kts | 257° |
| 2026-04-20 16:57 | 40.90632 | 100.76753 | 38112 ft | 407 kts | 257° |
| 2026-04-20 16:58 | 40.89363 | 100.69466 | 38112 ft | 407 kts | 257° |
| 2026-04-20 16:58 | 40.88089 | 100.62175 | 38109 ft | 407 kts | 257° |
| 2026-04-20 16:59 | 40.86812 | 100.54897 | 38116 ft | 407 kts | 257° |
| 2026-04-20 16:59 | 40.85528 | 100.47609 | 38100 ft | 407 kts | 256° |
| 2026-04-20 17:00 | 40.83593 | 100.36688 | 38112 ft | 407 kts | 256° |
| 2026-04-20 17:01 | 40.82295 | 100.29392 | 38110 ft | 408 kts | 256° |
| 2026-04-20 17:01 | 40.80993 | 100.22101 | 38110 ft | 408 kts | 256° |
| 2026-04-20 17:02 | 40.79683 | 100.14800 | 38107 ft | 409 kts | 256° |
| 2026-04-20 17:02 | 40.78368 | 100.07492 | 38109 ft | 410 kts | 256° |
| 2026-04-20 17:03 | 40.77044 | 100.00169 | 38109 ft | 410 kts | 256° |
| 2026-04-20 17:03 | 40.75744 | 99.93000 | 38112 ft | 410 kts | 256° |
| 2026-04-20 17:04 | 40.74411 | 99.85685 | 38108 ft | 410 kts | 256° |
| 2026-04-20 17:04 | 40.73071 | 99.78355 | 38112 ft | 410 kts | 256° |
| 2026-04-20 17:05 | 40.71731 | 99.71056 | 38110 ft | 410 kts | 256° |
| 2026-04-20 17:05 | 40.70393 | 99.63795 | 38120 ft | 410 kts | 256° |
| 2026-04-20 17:06 | 40.69041 | 99.56484 | 38107 ft | 410 kts | 256° |
| 2026-04-20 17:06 | 40.67688 | 99.49196 | 38118 ft | 410 kts | 256° |
| 2026-04-20 17:07 | 40.66320 | 99.41852 | 38119 ft | 410 kts | 255° |
| 2026-04-20 17:07 | 40.64965 | 99.34608 | 38117 ft | 410 kts | 255° |
| 2026-04-20 17:08 | 40.63596 | 99.27322 | 38118 ft | 410 kts | 255° |
| 2026-04-20 17:08 | 40.62224 | 99.20039 | 38119 ft | 409 kts | 255° |
| 2026-04-20 17:09 | 40.60847 | 99.12764 | 38117 ft | 410 kts | 255° |
| 2026-04-20 17:09 | 40.59465 | 99.05484 | 38123 ft | 410 kts | 255° |
| 2026-04-20 17:10 | 40.58110 | 98.98372 | 38125 ft | 411 kts | 255° |
| 2026-04-20 17:10 | 40.56714 | 98.91080 | 38092 ft | 411 kts | 255° |
| 2026-04-20 17:11 | 40.55542 | 98.84974 | 38113 ft | 411 kts | 255° |
| 2026-04-20 17:11 | 40.54138 | 98.77683 | 38122 ft | 412 kts | 255° |
| 2026-04-20 17:12 | 40.52728 | 98.70387 | 38120 ft | 412 kts | 254° |
| 2026-04-20 17:12 | 40.51313 | 98.63095 | 38119 ft | 413 kts | 254° |
| 2026-04-20 17:13 | 40.49883 | 98.55750 | 38110 ft | 414 kts | 254° |
| 2026-04-20 17:13 | 40.48451 | 98.48427 | 38110 ft | 414 kts | 254° |
| 2026-04-20 17:14 | 40.47013 | 98.41095 | 38116 ft | 414 kts | 254° |
| 2026-04-20 17:14 | 40.45572 | 98.33775 | 38126 ft | 414 kts | 254° |
| 2026-04-20 17:15 | 40.44133 | 98.26491 | 38116 ft | 415 kts | 253° |
| 2026-04-20 17:15 | 40.42678 | 98.19154 | 38109 ft | 415 kts | 253° |
| 2026-04-20 17:16 | 40.41220 | 98.11826 | 38112 ft | 415 kts | 253° |
| 2026-04-20 17:16 | 40.39756 | 98.04499 | 38103 ft | 415 kts | 254° |
| 2026-04-20 17:17 | 40.38319 | 97.97330 | 38114 ft | 416 kts | 254° |
| 2026-04-20 17:17 | 40.36842 | 97.89987 | 38116 ft | 417 kts | 253° |
| 2026-04-20 17:18 | 40.35357 | 97.82631 | 38114 ft | 418 kts | 253° |
| 2026-04-20 17:18 | 40.33863 | 97.75256 | 38113 ft | 419 kts | 253° |
| 2026-04-20 17:19 | 40.32362 | 97.67876 | 38114 ft | 419 kts | 253° |
| 2026-04-20 17:19 | 40.30859 | 97.60507 | 38112 ft | 419 kts | 253° |
| 2026-04-20 17:20 | 40.29348 | 97.53129 | 38112 ft | 419 kts | 253° |
| 2026-04-20 17:20 | 40.27832 | 97.45754 | 38110 ft | 419 kts | 253° |
| 2026-04-20 17:21 | 40.26311 | 97.38378 | 38113 ft | 419 kts | 253° |
| 2026-04-20 17:21 | 40.24785 | 97.31006 | 38113 ft | 419 kts | 253° |
| 2026-04-20 17:22 | 40.23256 | 97.23644 | 38108 ft | 419 kts | 253° |
| 2026-04-20 17:22 | 40.21723 | 97.16289 | 38115 ft | 419 kts | 253° |
| 2026-04-20 17:23 | 40.20195 | 97.08984 | 38117 ft | 419 kts | 253° |
| 2026-04-20 17:23 | 40.18653 | 97.01633 | 38117 ft | 419 kts | 253° |
| 2026-04-20 17:24 | 40.17136 | 96.94430 | 38113 ft | 420 kts | 253° |
| 2026-04-20 17:24 | 40.15581 | 96.87071 | 38113 ft | 420 kts | 253° |
| 2026-04-20 17:25 | 40.14020 | 96.79707 | 38122 ft | 420 kts | 252° |
| 2026-04-20 17:25 | 40.12452 | 96.72338 | 38113 ft | 421 kts | 252° |
| 2026-04-20 17:26 | 40.10888 | 96.65018 | 38119 ft | 421 kts | 252° |
| 2026-04-20 17:26 | 40.09310 | 96.57652 | 38117 ft | 421 kts | 252° |
| 2026-04-20 17:27 | 40.07727 | 96.50284 | 38115 ft | 421 kts | 252° |
| 2026-04-20 17:27 | 40.06139 | 96.42925 | 38115 ft | 422 kts | 252° |
| 2026-04-20 17:28 | 40.04542 | 96.35548 | 38110 ft | 423 kts | 252° |
| 2026-04-20 17:28 | 40.02937 | 96.28157 | 38119 ft | 424 kts | 252° |
| 2026-04-20 17:29 | 40.01324 | 96.20755 | 38114 ft | 425 kts | 252° |
| 2026-04-20 17:29 | 39.99704 | 96.13347 | 38114 ft | 425 kts | 252° |
| 2026-04-20 17:30 | 39.98089 | 96.05981 | 38107 ft | 426 kts | 252° |
| 2026-04-20 17:30 | 39.96484 | 95.98692 | 38125 ft | 428 kts | 251° |
| 2026-04-20 17:31 | 39.94833 | 95.91216 | 38120 ft | 430 kts | 251° |
| 2026-04-20 17:31 | 39.93173 | 95.83726 | 38112 ft | 431 kts | 251° |
| 2026-04-20 17:32 | 39.91507 | 95.76234 | 38114 ft | 431 kts | 251° |
| 2026-04-20 17:32 | 39.89833 | 95.68732 | 38116 ft | 431 kts | 251° |
| 2026-04-20 17:33 | 39.88153 | 95.61228 | 38126 ft | 432 kts | 251° |
| 2026-04-20 17:33 | 39.86464 | 95.53708 | 38131 ft | 433 kts | 251° |
| 2026-04-20 17:34 | 39.84769 | 95.46187 | 38132 ft | 433 kts | 251° |
| 2026-04-20 17:34 | 39.83064 | 95.38645 | 38129 ft | 434 kts | 251° |
| 2026-04-20 17:35 | 39.81366 | 95.31163 | 38168 ft | 434 kts | 251° |
| 2026-04-20 17:35 | 39.79650 | 95.23626 | 38150 ft | 434 kts | 251° |
| 2026-04-20 17:36 | 39.77931 | 95.16097 | 38144 ft | 434 kts | 251° |
| 2026-04-20 17:36 | 39.76207 | 95.08578 | 38125 ft | 434 kts | 251° |
| 2026-04-20 17:37 | 39.74480 | 95.01067 | 38134 ft | 433 kts | 251° |
| 2026-04-20 17:37 | 39.72785 | 94.93718 | 38174 ft | 433 kts | 251° |
| 2026-04-20 17:38 | 39.71053 | 94.86234 | 38137 ft | 432 kts | 251° |
| 2026-04-20 17:38 | 39.69321 | 94.78772 | 38136 ft | 430 kts | 251° |
| 2026-04-20 17:39 | 39.67589 | 94.71340 | 38132 ft | 429 kts | 251° |
| 2026-04-20 17:39 | 39.65858 | 94.63931 | 38136 ft | 429 kts | 251° |
| 2026-04-20 17:40 | 39.64124 | 94.56537 | 38168 ft | 428 kts | 251° |
| 2026-04-20 17:40 | 39.62388 | 94.49155 | 38140 ft | 427 kts | 251° |
| 2026-04-20 17:41 | 39.60652 | 94.41799 | 38131 ft | 425 kts | 251° |
| 2026-04-20 17:41 | 39.58929 | 94.34518 | 38135 ft | 424 kts | 251° |
| 2026-04-20 17:42 | 39.57196 | 94.27220 | 38145 ft | 423 kts | 251° |
| 2026-04-20 17:42 | 39.55458 | 94.19926 | 38144 ft | 423 kts | 251° |
| 2026-04-20 17:43 | 39.53717 | 94.12639 | 38154 ft | 423 kts | 251° |
| 2026-04-20 17:43 | 39.51974 | 94.05367 | 38142 ft | 423 kts | 251° |
| 2026-04-20 17:44 | 39.50264 | 93.98256 | 38141 ft | 422 kts | 251° |
| 2026-04-20 17:44 | 39.48518 | 93.91016 | 38143 ft | 421 kts | 251° |
| 2026-04-20 17:45 | 39.46767 | 93.83777 | 38146 ft | 421 kts | 251° |
| 2026-04-20 17:45 | 39.45012 | 93.76541 | 38150 ft | 422 kts | 250° |
| 2026-04-20 17:46 | 39.43251 | 93.69312 | 38152 ft | 425 kts | 250° |
| 2026-04-20 17:46 | 39.41463 | 93.61994 | 38158 ft | 428 kts | 250° |
| 2026-04-20 17:47 | 39.39664 | 93.54639 | 38167 ft | 429 kts | 250° |
| 2026-04-20 17:47 | 39.37857 | 93.47273 | 38158 ft | 430 kts | 250° |
| 2026-04-20 17:48 | 39.36044 | 93.39919 | 38163 ft | 430 kts | 250° |
| 2026-04-20 17:48 | 39.34225 | 93.32561 | 38153 ft | 429 kts | 250° |
| 2026-04-20 17:49 | 39.32405 | 93.25218 | 38159 ft | 429 kts | 250° |
| 2026-04-20 17:49 | 39.30585 | 93.17900 | 38115 ft | 428 kts | 250° |
| 2026-04-20 17:50 | 39.28765 | 93.10601 | 38158 ft | 426 kts | 250° |
| 2026-04-20 17:50 | 39.26943 | 93.03319 | 38179 ft | 427 kts | 250° |
| 2026-04-20 17:51 | 39.25153 | 92.96181 | 38166 ft | 428 kts | 250° |
| 2026-04-20 17:51 | 39.23324 | 92.88918 | 38164 ft | 429 kts | 250° |
| 2026-04-20 17:52 | 39.21474 | 92.81587 | 38168 ft | 431 kts | 250° |
| 2026-04-20 17:52 | 39.19610 | 92.74227 | 38159 ft | 432 kts | 250° |
| 2026-04-20 17:53 | 39.17738 | 92.66852 | 38171 ft | 433 kts | 250° |
| 2026-04-20 17:53 | 39.16177 | 92.60719 | 38164 ft | 434 kts | 250° |
| 2026-04-20 17:54 | 39.14288 | 92.53320 | 38160 ft | 434 kts | 250° |
| 2026-04-20 17:54 | 39.12396 | 92.45927 | 38154 ft | 435 kts | 250° |
| 2026-04-20 17:55 | 39.10495 | 92.38524 | 38151 ft | 435 kts | 250° |
| 2026-04-20 17:55 | 39.08607 | 92.31127 | 38147 ft | 435 kts | 251° |
| 2026-04-20 17:56 | 39.07294 | 92.23522 | 38157 ft | 436 kts | 258° |
| 2026-04-20 17:56 | 39.06185 | 92.15845 | 38149 ft | 436 kts | 258° |
| 2026-04-20 17:57 | 39.05060 | 92.08183 | 38152 ft | 435 kts | 257° |
| 2026-04-20 17:57 | 39.03922 | 92.00538 | 38149 ft | 435 kts | 257° |
| 2026-04-20 17:58 | 39.02800 | 91.93064 | 38154 ft | 434 kts | 257° |
| 2026-04-20 17:58 | 39.01648 | 91.85440 | 38157 ft | 434 kts | 258° |
| 2026-04-20 17:59 | 39.00495 | 91.77831 | 38157 ft | 433 kts | 258° |
| 2026-04-20 17:59 | 38.99342 | 91.70258 | 38161 ft | 432 kts | 258° |
| 2026-04-20 18:00 | 38.98183 | 91.62675 | 38159 ft | 432 kts | 258° |
| 2026-04-20 18:00 | 38.97020 | 91.55112 | 38168 ft | 431 kts | 258° |
| 2026-04-20 18:01 | 38.95854 | 91.47559 | 38168 ft | 431 kts | 258° |
| 2026-04-20 18:01 | 38.94694 | 91.40074 | 38162 ft | 430 kts | 258° |
| 2026-04-20 18:02 | 38.93524 | 91.32556 | 38162 ft | 429 kts | 258° |
| 2026-04-20 18:02 | 38.92348 | 91.25037 | 38162 ft | 429 kts | 258° |
| 2026-04-20 18:03 | 38.91169 | 91.17533 | 38166 ft | 429 kts | 258° |
| 2026-04-20 18:03 | 38.89983 | 91.10014 | 38177 ft | 429 kts | 258° |
| 2026-04-20 18:04 | 38.88794 | 91.02503 | 38171 ft | 429 kts | 258° |
| 2026-04-20 18:04 | 38.87621 | 90.95129 | 38172 ft | 430 kts | 258° |
| 2026-04-20 18:05 | 38.86145 | 90.83772 | 38180 ft | 430 kts | 261° |
| 2026-04-20 18:05 | 38.85238 | 90.76184 | 38203 ft | 430 kts | 261° |
| 2026-04-20 18:06 | 38.84296 | 90.68598 | 38192 ft | 431 kts | 260° |
| 2026-04-20 18:06 | 38.83343 | 90.61063 | 38191 ft | 431 kts | 260° |
| 2026-04-20 18:07 | 38.82376 | 90.53478 | 38193 ft | 430 kts | 260° |
| 2026-04-20 18:07 | 38.81408 | 90.45913 | 38193 ft | 430 kts | 260° |
| 2026-04-20 18:08 | 38.80437 | 90.38359 | 38186 ft | 430 kts | 260° |
| 2026-04-20 18:08 | 38.79456 | 90.30782 | 38189 ft | 430 kts | 260° |
| 2026-04-20 18:09 | 38.78470 | 90.23226 | 38193 ft | 430 kts | 260° |
| 2026-04-20 18:09 | 38.77477 | 90.15658 | 38188 ft | 430 kts | 260° |
| 2026-04-20 18:10 | 38.76481 | 90.08099 | 38189 ft | 430 kts | 260° |
| 2026-04-20 18:10 | 38.75478 | 90.00523 | 38188 ft | 431 kts | 260° |
| 2026-04-20 18:11 | 38.74489 | 89.93096 | 38178 ft | 432 kts | 260° |
| 2026-04-20 18:11 | 38.73479 | 89.85547 | 38185 ft | 433 kts | 260° |
| 2026-04-20 18:12 | 38.72454 | 89.77920 | 38195 ft | 434 kts | 260° |
| 2026-04-20 18:12 | 38.71423 | 89.70289 | 38185 ft | 435 kts | 260° |
| 2026-04-20 18:13 | 38.70387 | 89.62661 | 38189 ft | 435 kts | 260° |
| 2026-04-20 18:13 | 38.69343 | 89.55013 | 38190 ft | 435 kts | 260° |
| 2026-04-20 18:14 | 38.68295 | 89.47371 | 38198 ft | 435 kts | 260° |
| 2026-04-20 18:14 | 38.67242 | 89.39739 | 38195 ft | 435 kts | 260° |
| 2026-04-20 18:15 | 38.66184 | 89.32106 | 38178 ft | 435 kts | 260° |
| 2026-04-20 18:15 | 38.65127 | 89.24505 | 38201 ft | 433 kts | 259° |
| 2026-04-20 18:16 | 38.64068 | 89.16943 | 38215 ft | 431 kts | 260° |
| 2026-04-20 18:16 | 38.63010 | 89.09412 | 38214 ft | 430 kts | 260° |
| 2026-04-20 18:17 | 38.61942 | 89.01862 | 38210 ft | 430 kts | 260° |
| 2026-04-20 18:17 | 38.60905 | 88.94555 | 38213 ft | 429 kts | 260° |
| 2026-04-20 18:18 | 38.59833 | 88.87045 | 38216 ft | 430 kts | 260° |
| 2026-04-20 18:18 | 38.58755 | 88.79526 | 38210 ft | 429 kts | 259° |
| 2026-04-20 18:19 | 38.57671 | 88.71978 | 38216 ft | 430 kts | 260° |
| 2026-04-20 18:19 | 38.56850 | 88.64446 | 38217 ft | 431 kts | 263° |
| 2026-04-20 18:20 | 38.56131 | 88.56793 | 38213 ft | 432 kts | 263° |
| 2026-04-20 18:20 | 38.55408 | 88.49160 | 38239 ft | 433 kts | 263° |
| 2026-04-20 18:21 | 38.54670 | 88.41519 | 38227 ft | 433 kts | 263° |
| 2026-04-20 18:21 | 38.53919 | 88.33862 | 38227 ft | 434 kts | 263° |
| 2026-04-20 18:22 | 38.53163 | 88.26225 | 38207 ft | 435 kts | 262° |
| 2026-04-20 18:22 | 38.52400 | 88.18559 | 38220 ft | 435 kts | 262° |
| 2026-04-20 18:23 | 38.51632 | 88.10884 | 38208 ft | 435 kts | 263° |
| 2026-04-20 18:23 | 38.50858 | 88.03216 | 38197 ft | 435 kts | 263° |
| 2026-04-20 18:24 | 38.50095 | 87.95700 | 38189 ft | 434 kts | 263° |
| 2026-04-20 18:24 | 38.49309 | 87.88060 | 38189 ft | 434 kts | 263° |
| 2026-04-20 18:25 | 38.48527 | 87.80407 | 38160 ft | 434 kts | 263° |
| 2026-04-20 18:25 | 38.47731 | 87.72701 | 38158 ft | 435 kts | 262° |
| 2026-04-20 18:26 | 38.46932 | 87.65048 | 38134 ft | 435 kts | 263° |
| 2026-04-20 18:26 | 38.46132 | 87.57429 | 38149 ft | 436 kts | 263° |
| 2026-04-20 18:27 | 38.45454 | 87.51003 | 38132 ft | 436 kts | 263° |
| 2026-04-20 18:27 | 38.44641 | 87.43340 | 38138 ft | 436 kts | 263° |
| 2026-04-20 18:28 | 38.43821 | 87.35663 | 38136 ft | 437 kts | 262° |
| 2026-04-20 18:28 | 38.42994 | 87.27975 | 38129 ft | 437 kts | 263° |
| 2026-04-20 18:29 | 38.42163 | 87.20287 | 38130 ft | 438 kts | 263° |
| 2026-04-20 18:29 | 38.41326 | 87.12598 | 38131 ft | 438 kts | 262° |
| 2026-04-20 18:30 | 38.40481 | 87.04885 | 38124 ft | 439 kts | 262° |
| 2026-04-20 18:30 | 38.39650 | 86.97341 | 38124 ft | 439 kts | 262° |
| 2026-04-20 18:31 | 38.38794 | 86.89625 | 38113 ft | 440 kts | 262° |
| 2026-04-20 18:31 | 38.37933 | 86.81899 | 38111 ft | 440 kts | 263° |
| 2026-04-20 18:32 | 38.37066 | 86.74181 | 38115 ft | 439 kts | 262° |
| 2026-04-20 18:32 | 38.36197 | 86.66485 | 38115 ft | 439 kts | 262° |
| 2026-04-20 18:33 | 38.35322 | 86.58781 | 38106 ft | 439 kts | 262° |
| 2026-04-20 18:33 | 38.34443 | 86.51093 | 38102 ft | 438 kts | 262° |
| 2026-04-20 18:34 | 38.33560 | 86.43412 | 38107 ft | 438 kts | 262° |
| 2026-04-20 18:34 | 38.32672 | 86.35731 | 38104 ft | 438 kts | 262° |
| 2026-04-20 18:35 | 38.31780 | 86.28056 | 38106 ft | 438 kts | 262° |
| 2026-04-20 18:35 | 38.30881 | 86.20373 | 38106 ft | 438 kts | 262° |
| 2026-04-20 18:36 | 38.29976 | 86.12682 | 38099 ft | 439 kts | 262° |
| 2026-04-20 18:36 | 38.29066 | 86.04996 | 38108 ft | 440 kts | 262° |
| 2026-04-20 18:37 | 38.28167 | 85.97439 | 38106 ft | 441 kts | 262° |
| 2026-04-20 18:37 | 38.27242 | 85.89719 | 38103 ft | 442 kts | 262° |
| 2026-04-20 18:38 | 38.26311 | 85.81983 | 38103 ft | 442 kts | 262° |
| 2026-04-20 18:38 | 38.25375 | 85.74251 | 38103 ft | 443 kts | 262° |
| 2026-04-20 18:39 | 38.24432 | 85.66508 | 38097 ft | 443 kts | 262° |
| 2026-04-20 18:39 | 38.23484 | 85.58761 | 38097 ft | 443 kts | 262° |
| 2026-04-20 18:40 | 38.22533 | 85.51026 | 38099 ft | 443 kts | 262° |
| 2026-04-20 18:40 | 38.21191 | 85.43390 | 38105 ft | 444 kts | 255° |
| 2026-04-20 18:41 | 38.18927 | 85.36062 | 38089 ft | 446 kts | 249° |
| 2026-04-20 18:41 | 38.16403 | 85.28855 | 38093 ft | 447 kts | 249° |
| 2026-04-20 18:42 | 38.13886 | 85.21635 | 38089 ft | 447 kts | 249° |
| 2026-04-20 18:42 | 38.11380 | 85.14403 | 38089 ft | 448 kts | 249° |
| 2026-04-20 18:43 | 38.08869 | 85.07160 | 38090 ft | 448 kts | 249° |
| 2026-04-20 18:43 | 38.06367 | 84.99966 | 38080 ft | 446 kts | 249° |
| 2026-04-20 18:44 | 38.03912 | 84.92917 | 38090 ft | 444 kts | 249° |
| 2026-04-20 18:44 | 38.01597 | 84.85683 | 38091 ft | 440 kts | 255° |
| 2026-04-20 18:45 | 38.00141 | 84.78182 | 38096 ft | 437 kts | 260° |
| 2026-04-20 18:45 | 37.98861 | 84.70657 | 38089 ft | 437 kts | 260° |
| 2026-04-20 18:46 | 37.97563 | 84.63140 | 38098 ft | 437 kts | 260° |
| 2026-04-20 18:46 | 37.96248 | 84.55618 | 38098 ft | 437 kts | 260° |
| 2026-04-20 18:47 | 37.94923 | 84.48092 | 38089 ft | 437 kts | 260° |
| 2026-04-20 18:47 | 37.93592 | 84.40565 | 38093 ft | 438 kts | 259° |
| 2026-04-20 18:48 | 37.92256 | 84.33038 | 38090 ft | 438 kts | 259° |
| 2026-04-20 18:48 | 37.90914 | 84.25505 | 38082 ft | 438 kts | 260° |
| 2026-04-20 18:49 | 37.89569 | 84.17980 | 38099 ft | 438 kts | 260° |
| 2026-04-20 18:49 | 37.88216 | 84.10443 | 38097 ft | 438 kts | 260° |
| 2026-04-20 18:50 | 37.86859 | 84.02914 | 38097 ft | 438 kts | 260° |
| 2026-04-20 18:50 | 37.85529 | 83.95563 | 38102 ft | 438 kts | 259° |
| 2026-04-20 18:51 | 37.84162 | 83.88041 | 38097 ft | 438 kts | 260° |
| 2026-04-20 18:51 | 37.82792 | 83.80527 | 38093 ft | 438 kts | 260° |
| 2026-04-20 18:52 | 37.81419 | 83.73022 | 38091 ft | 438 kts | 260° |
| 2026-04-20 18:52 | 37.80044 | 83.65537 | 38096 ft | 437 kts | 260° |
| 2026-04-20 18:53 | 37.78663 | 83.58047 | 38096 ft | 437 kts | 260° |
| 2026-04-20 18:53 | 37.77275 | 83.50550 | 38063 ft | 436 kts | 260° |
| 2026-04-20 18:54 | 37.75885 | 83.43060 | 38084 ft | 435 kts | 260° |
| 2026-04-20 18:54 | 37.74505 | 83.35658 | 38087 ft | 434 kts | 260° |
| 2026-04-20 18:55 | 37.73116 | 83.28235 | 38096 ft | 434 kts | 260° |
| 2026-04-20 18:55 | 37.71722 | 83.20810 | 38090 ft | 434 kts | 260° |
| 2026-04-20 18:56 | 37.70325 | 83.13385 | 38075 ft | 434 kts | 260° |
| 2026-04-20 18:56 | 37.68928 | 83.05989 | 38092 ft | 434 kts | 260° |
| 2026-04-20 18:57 | 37.67556 | 82.98751 | 38093 ft | 434 kts | 260° |
| 2026-04-20 18:57 | 37.66136 | 82.91285 | 38095 ft | 435 kts | 260° |
| 2026-04-20 18:58 | 37.64713 | 82.83833 | 38094 ft | 435 kts | 260° |
| 2026-04-20 18:58 | 37.63291 | 82.76419 | 38072 ft | 436 kts | 260° |
| 2026-04-20 18:59 | 37.61861 | 82.68987 | 38090 ft | 436 kts | 260° |
| 2026-04-20 18:59 | 37.60426 | 82.61550 | 38085 ft | 437 kts | 260° |
| 2026-04-20 19:00 | 37.58985 | 82.54112 | 38106 ft | 437 kts | 260° |
| 2026-04-20 19:00 | 37.57772 | 82.47870 | 38106 ft | 437 kts | 260° |
| 2026-04-20 19:01 | 37.56321 | 82.40433 | 38088 ft | 437 kts | 260° |
| 2026-04-20 19:01 | 37.54860 | 82.32970 | 38091 ft | 437 kts | 260° |
| 2026-04-20 19:02 | 37.53394 | 82.25510 | 38095 ft | 438 kts | 260° |
| 2026-04-20 19:02 | 37.51926 | 82.18060 | 38094 ft | 438 kts | 260° |
| 2026-04-20 19:03 | 37.50460 | 82.10651 | 38095 ft | 439 kts | 260° |
| 2026-04-20 19:03 | 37.48979 | 82.03197 | 38094 ft | 439 kts | 260° |
| 2026-04-20 19:04 | 37.47529 | 81.95922 | 38094 ft | 439 kts | 260° |
| 2026-04-20 19:04 | 37.46038 | 81.88464 | 38095 ft | 439 kts | 260° |
| 2026-04-20 19:05 | 37.44544 | 81.81023 | 38098 ft | 439 kts | 260° |
| 2026-04-20 19:05 | 37.43047 | 81.73585 | 38091 ft | 438 kts | 260° |
| 2026-04-20 19:06 | 37.41545 | 81.66160 | 38093 ft | 437 kts | 259° |
| 2026-04-20 19:06 | 37.40043 | 81.58758 | 38088 ft | 436 kts | 259° |
| 2026-04-20 19:07 | 37.38528 | 81.51313 | 38092 ft | 436 kts | 259° |
| 2026-04-20 19:07 | 37.37021 | 81.43927 | 38094 ft | 436 kts | 259° |
| 2026-04-20 19:08 | 37.34761 | 81.32906 | 38094 ft | 436 kts | 259° |
| 2026-04-20 19:09 | 37.33240 | 81.25522 | 38080 ft | 436 kts | 259° |
| 2026-04-20 19:09 | 37.31705 | 81.18094 | 38092 ft | 437 kts | 259° |
| 2026-04-20 19:10 | 37.30171 | 81.10700 | 38094 ft | 437 kts | 259° |
| 2026-04-20 19:10 | 37.28643 | 81.03355 | 38093 ft | 438 kts | 259° |
| 2026-04-20 19:11 | 37.27124 | 80.96078 | 38100 ft | 438 kts | 259° |
| 2026-04-20 19:11 | 37.25571 | 80.88669 | 38076 ft | 439 kts | 259° |
| 2026-04-20 19:12 | 37.24012 | 80.81253 | 38100 ft | 439 kts | 259° |
| 2026-04-20 19:12 | 37.22448 | 80.73837 | 38092 ft | 440 kts | 259° |
| 2026-04-20 19:13 | 37.20876 | 80.66406 | 38096 ft | 441 kts | 259° |
| 2026-04-20 19:13 | 37.19299 | 80.58976 | 38121 ft | 442 kts | 259° |
| 2026-04-20 19:13 | 37.18505 | 80.55248 | 38343 ft | 442 kts | 259° |
| 2026-04-20 19:14 | 37.17712 | 80.51530 | 38608 ft | 440 kts | 258° |
| 2026-04-20 19:14 | 37.16920 | 80.47824 | 38834 ft | 439 kts | 258° |
| 2026-04-20 19:14 | 37.16130 | 80.44130 | 39022 ft | 439 kts | 258° |
| 2026-04-20 19:14 | 37.15338 | 80.40431 | 39192 ft | 439 kts | 258° |
| 2026-04-20 19:15 | 37.14542 | 80.36722 | 39342 ft | 440 kts | 258° |
| 2026-04-20 19:15 | 37.13745 | 80.33017 | 39498 ft | 440 kts | 258° |
| 2026-04-20 19:15 | 37.12948 | 80.29316 | 39647 ft | 440 kts | 258° |
| 2026-04-20 19:15 | 37.12151 | 80.25618 | 39817 ft | 440 kts | 258° |
| 2026-04-20 19:16 | 37.11348 | 80.21902 | 39903 ft | 441 kts | 258° |
| 2026-04-20 19:16 | 37.09737 | 80.14460 | 39987 ft | 444 kts | 258° |
| 2026-04-20 19:17 | 37.08106 | 80.06958 | 40008 ft | 445 kts | 258° |
| 2026-04-20 19:17 | 37.06512 | 79.99643 | 40017 ft | 446 kts | 258° |
| 2026-04-20 19:18 | 37.04871 | 79.92140 | 40010 ft | 446 kts | 258° |
| 2026-04-20 19:18 | 37.03782 | 79.84550 | 40010 ft | 442 kts | 266° |
| 2026-04-20 19:19 | 37.03603 | 79.76902 | 40022 ft | 439 kts | 271° |
| 2026-04-20 19:19 | 37.03605 | 79.69242 | 40016 ft | 439 kts | 271° |
| 2026-04-20 19:20 | 37.03595 | 79.61597 | 40017 ft | 439 kts | 271° |
| 2026-04-20 19:20 | 37.03564 | 79.53958 | 40021 ft | 439 kts | 271° |
| 2026-04-20 19:21 | 37.03523 | 79.46359 | 40026 ft | 439 kts | 271° |
| 2026-04-20 19:21 | 37.03474 | 79.38655 | 40018 ft | 439 kts | 271° |
| 2026-04-20 19:22 | 37.03421 | 79.31048 | 40030 ft | 440 kts | 271° |
| 2026-04-20 19:22 | 37.03362 | 79.23375 | 40035 ft | 441 kts | 271° |
| 2026-04-20 19:23 | 37.03299 | 79.15686 | 40024 ft | 442 kts | 271° |
| 2026-04-20 19:23 | 37.03231 | 79.07999 | 40029 ft | 442 kts | 271° |
| 2026-04-20 19:24 | 37.03158 | 79.00282 | 40023 ft | 443 kts | 271° |
| 2026-04-20 19:24 | 37.03081 | 78.92712 | 40037 ft | 443 kts | 271° |
| 2026-04-20 19:25 | 37.02998 | 78.85043 | 40034 ft | 443 kts | 271° |
| 2026-04-20 19:25 | 37.02910 | 78.77326 | 40043 ft | 444 kts | 271° |
| 2026-04-20 19:26 | 37.02817 | 78.69607 | 40045 ft | 444 kts | 271° |
| 2026-04-20 19:26 | 37.02718 | 78.61881 | 40050 ft | 444 kts | 271° |
| 2026-04-20 19:27 | 37.02616 | 78.54163 | 40050 ft | 444 kts | 270° |
| 2026-04-20 19:27 | 37.02507 | 78.46444 | 40063 ft | 444 kts | 270° |
| 2026-04-20 19:28 | 37.02394 | 78.38708 | 40074 ft | 444 kts | 270° |
| 2026-04-20 19:28 | 37.02275 | 78.30967 | 40070 ft | 444 kts | 271° |
| 2026-04-20 19:29 | 37.02155 | 78.23253 | 40072 ft | 444 kts | 270° |
| 2026-04-20 19:29 | 37.02025 | 78.15540 | 40085 ft | 444 kts | 270° |
| 2026-04-20 19:30 | 37.01890 | 78.07813 | 40061 ft | 444 kts | 270° |
| 2026-04-20 19:30 | 37.01753 | 78.00081 | 40030 ft | 444 kts | 270° |
| 2026-04-20 19:31 | 37.01611 | 77.92548 | 40075 ft | 442 kts | 270° |
| 2026-04-20 19:31 | 37.01464 | 77.84843 | 40083 ft | 444 kts | 270° |
| 2026-04-20 19:32 | 37.01310 | 77.77112 | 40095 ft | 444 kts | 270° |
| 2026-04-20 19:32 | 37.01152 | 77.69363 | 40089 ft | 446 kts | 270° |
| 2026-04-20 19:33 | 37.00990 | 77.61592 | 40092 ft | 447 kts | 270° |
| 2026-04-20 19:33 | 37.00819 | 77.53807 | 40085 ft | 448 kts | 270° |
| 2026-04-20 19:34 | 37.00643 | 77.46060 | 40097 ft | 447 kts | 270° |
| 2026-04-20 19:34 | 37.00464 | 77.38295 | 40094 ft | 447 kts | 270° |
| 2026-04-20 19:35 | 37.00281 | 77.30523 | 40119 ft | 447 kts | 270° |
| 2026-04-20 19:35 | 37.00091 | 77.22748 | 40133 ft | 447 kts | 270° |
| 2026-04-20 19:36 | 36.99927 | 77.16211 | 40103 ft | 448 kts | 270° |
| 2026-04-20 19:36 | 36.99726 | 77.08438 | 40111 ft | 446 kts | 270° |
| 2026-04-20 19:37 | 36.99524 | 77.00710 | 40108 ft | 444 kts | 270° |
| 2026-04-20 19:37 | 36.99322 | 76.93171 | 40119 ft | 443 kts | 270° |
| 2026-04-20 19:38 | 36.99111 | 76.85481 | 40105 ft | 442 kts | 270° |
| 2026-04-20 19:38 | 36.98895 | 76.77791 | 40120 ft | 441 kts | 270° |
| 2026-04-20 19:39 | 36.98674 | 76.70166 | 40103 ft | 440 kts | 270° |
| 2026-04-20 19:39 | 36.98449 | 76.62524 | 40139 ft | 441 kts | 270° |
| 2026-04-20 19:40 | 36.98215 | 76.54844 | 40112 ft | 443 kts | 270° |
| 2026-04-20 19:40 | 36.97981 | 76.47169 | 40166 ft | 441 kts | 270° |
| 2026-04-20 19:41 | 36.97739 | 76.39470 | 40158 ft | 444 kts | 270° |
| 2026-04-20 19:41 | 36.97492 | 76.31721 | 40162 ft | 446 kts | 270° |
| 2026-04-20 19:42 | 36.97239 | 76.23978 | 40160 ft | 446 kts | 270° |
| 2026-04-20 19:42 | 36.96979 | 76.16237 | 40176 ft | 445 kts | 270° |
| 2026-04-20 19:43 | 36.96762 | 76.09816 | 40175 ft | 444 kts | 270° |
| 2026-04-20 19:43 | 36.96525 | 76.03009 | 40192 ft | 444 kts | 270° |
| 2026-04-20 19:44 | 36.96298 | 75.96501 | 40178 ft | 444 kts | 270° |
| 2026-04-20 19:44 | 36.96022 | 75.88781 | 40250 ft | 445 kts | 270° |
| 2026-04-20 19:45 | 36.95741 | 75.81040 | 40208 ft | 445 kts | 270° |
| 2026-04-20 19:45 | 36.95456 | 75.73310 | 40216 ft | 445 kts | 270° |
| 2026-04-20 19:46 | 36.95166 | 75.65620 | 40236 ft | 441 kts | 270° |
| 2026-04-20 19:46 | 36.94874 | 75.57948 | 40259 ft | 442 kts | 270° |
| 2026-04-20 19:47 | 36.94577 | 75.50325 | 40256 ft | 441 kts | 270° |
| 2026-04-20 19:47 | 36.93628 | 75.42783 | 40263 ft | 447 kts | 251° |
| 2026-04-20 19:48 | 36.90176 | 75.36240 | 40292 ft | 461 kts | 227° |
| 2026-04-20 19:48 | 36.85249 | 75.31000 | 40318 ft | 467 kts | 224° |
| 2026-04-20 19:49 | 36.80207 | 75.25813 | 40297 ft | 471 kts | 224° |
| 2026-04-20 19:49 | 36.75165 | 75.20539 | 40294 ft | 474 kts | 225° |
| 2026-04-20 19:50 | 36.70129 | 75.15222 | 40268 ft | 473 kts | 224° |
| 2026-04-20 19:50 | 36.65149 | 75.10008 | 40341 ft | 465 kts | 224° |
| 2026-04-20 19:51 | 36.60202 | 75.04758 | 40285 ft | 469 kts | 225° |
| 2026-04-20 19:51 | 36.55348 | 74.99576 | 40287 ft | 468 kts | 225° |
| 2026-04-20 19:52 | 36.50371 | 74.94319 | 40212 ft | 468 kts | 225° |
| 2026-04-20 19:52 | 36.45364 | 74.89059 | 40287 ft | 474 kts | 225° |
| 2026-04-20 19:53 | 36.40313 | 74.83761 | 40281 ft | 476 kts | 225° |
| 2026-04-20 19:53 | 36.35287 | 74.78488 | 40307 ft | 474 kts | 225° |
| 2026-04-20 19:54 | 36.30234 | 74.73204 | 40268 ft | 475 kts | 225° |
| 2026-04-20 19:54 | 36.25164 | 74.67912 | 40270 ft | 475 kts | 225° |
| 2026-04-20 19:55 | 36.20101 | 74.62637 | 40214 ft | 475 kts | 225° |
| 2026-04-20 19:55 | 36.15050 | 74.57381 | 40230 ft | 473 kts | 225° |
| 2026-04-20 19:56 | 36.10870 | 74.53038 | 40200 ft | 471 kts | 225° |
| 2026-04-20 19:56 | 36.05060 | 74.47023 | 40209 ft | 465 kts | 225° |
| 2026-04-20 19:57 | 36.00081 | 74.41845 | 40170 ft | 468 kts | 225° |
| 2026-04-20 19:57 | 35.95083 | 74.36682 | 40152 ft | 470 kts | 225° |
| 2026-04-20 19:58 | 35.90359 | 74.31176 | 40135 ft | 464 kts | 235° |
| 2026-04-20 19:58 | 35.86282 | 74.24999 | 40139 ft | 465 kts | 236° |
| 2026-04-20 19:59 | 35.82222 | 74.18796 | 40121 ft | 468 kts | 236° |
| 2026-04-20 19:59 | 35.78106 | 74.12562 | 40128 ft | 468 kts | 236° |
| 2026-04-20 20:00 | 35.73979 | 74.06357 | 40131 ft | 468 kts | 236° |
| 2026-04-20 20:00 | 35.69849 | 74.00171 | 40125 ft | 467 kts | 236° |
| 2026-04-20 20:01 | 35.65817 | 73.94141 | 40101 ft | 466 kts | 236° |
| 2026-04-20 20:01 | 35.61681 | 73.87962 | 40129 ft | 467 kts | 236° |
| 2026-04-20 20:02 | 35.57585 | 73.81856 | 40126 ft | 466 kts | 236° |
| 2026-04-20 20:02 | 35.53455 | 73.75710 | 40137 ft | 465 kts | 236° |
| 2026-04-20 20:03 | 35.49329 | 73.69571 | 40155 ft | 467 kts | 236° |
| 2026-04-20 20:03 | 35.45151 | 73.63385 | 40138 ft | 470 kts | 236° |
| 2026-04-20 20:04 | 35.41007 | 73.57239 | 40152 ft | 468 kts | 236° |
| 2026-04-20 20:04 | 35.36857 | 73.51104 | 40146 ft | 467 kts | 236° |
| 2026-04-20 20:05 | 35.32700 | 73.44973 | 40179 ft | 468 kts | 235° |
| 2026-04-20 20:05 | 35.28538 | 73.38843 | 40170 ft | 466 kts | 235° |
| 2026-04-20 20:06 | 35.24384 | 73.32736 | 40149 ft | 467 kts | 235° |
| 2026-04-20 20:06 | 35.20229 | 73.26639 | 40136 ft | 467 kts | 235° |
| 2026-04-20 20:07 | 35.16072 | 73.20549 | 40105 ft | 461 kts | 235° |
| 2026-04-20 20:07 | 35.11978 | 73.14561 | 40136 ft | 463 kts | 236° |
| 2026-04-20 20:08 | 35.07827 | 73.08498 | 40105 ft | 468 kts | 235° |
| 2026-04-20 20:08 | 35.03670 | 73.02436 | 40075 ft | 467 kts | 235° |
| 2026-04-20 20:09 | 34.99578 | 72.96483 | 40076 ft | 470 kts | 235° |
| 2026-04-20 20:09 | 34.95356 | 72.90350 | 40079 ft | 473 kts | 235° |
| 2026-04-20 20:10 | 34.91118 | 72.84210 | 39996 ft | 472 kts | 235° |
| 2026-04-20 20:10 | 34.86886 | 72.78095 | 40030 ft | 472 kts | 235° |
| 2026-04-20 20:11 | 34.82645 | 72.71971 | 40010 ft | 472 kts | 235° |
| 2026-04-20 20:11 | 34.78411 | 72.65881 | 40002 ft | 470 kts | 235° |
| 2026-04-20 20:12 | 34.74218 | 72.59845 | 39978 ft | 470 kts | 235° |
| 2026-04-20 20:12 | 34.70005 | 72.53799 | 39991 ft | 467 kts | 234° |
| 2026-04-20 20:13 | 34.63687 | 72.44742 | 39972 ft | 469 kts | 235° |
| 2026-04-20 20:13 | 34.59458 | 72.38696 | 39962 ft | 470 kts | 235° |
| 2026-04-20 20:14 | 34.55217 | 72.32644 | 39961 ft | 470 kts | 235° |
| 2026-04-20 20:14 | 34.51683 | 72.27609 | 39950 ft | 471 kts | 235° |
| 2026-04-20 20:15 | 34.47425 | 72.21553 | 39906 ft | 471 kts | 235° |
| 2026-04-20 20:15 | 34.43170 | 72.15511 | 39918 ft | 471 kts | 235° |
| 2026-04-20 20:16 | 34.38908 | 72.09469 | 39892 ft | 471 kts | 235° |
| 2026-04-20 20:16 | 34.34658 | 72.03452 | 39896 ft | 470 kts | 235° |
| 2026-04-20 20:17 | 34.30499 | 71.97576 | 39894 ft | 470 kts | 235° |
| 2026-04-20 20:17 | 34.26246 | 71.91577 | 39883 ft | 470 kts | 235° |
| 2026-04-20 20:18 | 34.22014 | 71.85617 | 39880 ft | 469 kts | 235° |
| 2026-04-20 20:18 | 34.17726 | 71.79588 | 39887 ft | 469 kts | 235° |
| 2026-04-20 20:19 | 34.13474 | 71.73619 | 39883 ft | 469 kts | 235° |
| 2026-04-20 20:19 | 34.09218 | 71.67655 | 39872 ft | 469 kts | 235° |
| 2026-04-20 20:20 | 34.04978 | 71.61724 | 39886 ft | 469 kts | 235° |
| 2026-04-20 20:20 | 34.00712 | 71.55763 | 39885 ft | 470 kts | 235° |
| 2026-04-20 20:21 | 33.96269 | 71.49977 | 39885 ft | 476 kts | 228° |
| 2026-04-20 20:21 | 33.91239 | 71.44725 | 39882 ft | 479 kts | 227° |
| 2026-04-20 20:22 | 33.86151 | 71.39509 | 39909 ft | 480 kts | 227° |
| 2026-04-20 20:22 | 33.81086 | 71.34265 | 39905 ft | 481 kts | 227° |
| 2026-04-20 20:23 | 33.76032 | 71.29007 | 39906 ft | 481 kts | 227° |
| 2026-04-20 20:23 | 33.70971 | 71.23746 | 39913 ft | 480 kts | 227° |
| 2026-04-20 20:24 | 33.66541 | 71.19150 | 39933 ft | 480 kts | 227° |
| 2026-04-20 20:24 | 33.62258 | 71.14712 | 39944 ft | 481 kts | 227° |
| 2026-04-20 20:25 | 33.57178 | 71.09458 | 39927 ft | 482 kts | 227° |
| 2026-04-20 20:25 | 33.52105 | 71.04216 | 39945 ft | 480 kts | 227° |
| 2026-04-20 20:26 | 33.47000 | 70.99295 | 39936 ft | 486 kts | 220° |
| 2026-04-20 20:26 | 33.41238 | 70.94974 | 39914 ft | 488 kts | 218° |
| 2026-04-20 20:27 | 33.35441 | 70.90731 | 39928 ft | 489 kts | 218° |
| 2026-04-20 20:27 | 33.29658 | 70.86451 | 39890 ft | 488 kts | 218° |
| 2026-04-20 20:28 | 33.23894 | 70.82155 | 39903 ft | 489 kts | 218° |
| 2026-04-20 20:28 | 33.18118 | 70.77852 | 39875 ft | 489 kts | 218° |
| 2026-04-20 20:29 | 33.12338 | 70.73556 | 39883 ft | 489 kts | 218° |
| 2026-04-20 20:29 | 33.06559 | 70.69267 | 39874 ft | 489 kts | 218° |
| 2026-04-20 20:30 | 33.00773 | 70.64981 | 39873 ft | 490 kts | 218° |
| 2026-04-20 20:30 | 32.94986 | 70.60700 | 39872 ft | 490 kts | 218° |
| 2026-04-20 20:31 | 32.89254 | 70.56405 | 39861 ft | 490 kts | 219° |
| 2026-04-20 20:31 | 32.83521 | 70.52010 | 39853 ft | 489 kts | 219° |
| 2026-04-20 20:32 | 32.77792 | 70.47630 | 39859 ft | 489 kts | 219° |
| 2026-04-20 20:32 | 32.72057 | 70.43268 | 39873 ft | 489 kts | 219° |
| 2026-04-20 20:33 | 32.66323 | 70.38915 | 39872 ft | 489 kts | 219° |
| 2026-04-20 20:33 | 32.60553 | 70.34629 | 39856 ft | 490 kts | 217° |
| 2026-04-20 20:34 | 32.54654 | 70.30555 | 39895 ft | 490 kts | 216° |
| 2026-04-20 20:34 | 32.48758 | 70.26494 | 39890 ft | 490 kts | 216° |
| 2026-04-20 20:35 | 32.42917 | 70.22424 | 39888 ft | 490 kts | 216° |
| 2026-04-20 20:35 | 32.37043 | 70.18332 | 39902 ft | 489 kts | 217° |
| 2026-04-20 20:36 | 32.31221 | 70.14186 | 39898 ft | 488 kts | 218° |
| 2026-04-20 20:36 | 32.25416 | 70.09969 | 39873 ft | 488 kts | 218° |
| 2026-04-20 20:37 | 32.19623 | 70.05789 | 39892 ft | 487 kts | 217° |
| 2026-04-20 20:37 | 32.13841 | 70.01627 | 39890 ft | 486 kts | 217° |
| 2026-04-20 20:38 | 32.08191 | 69.97572 | 39892 ft | 486 kts | 217° |
| 2026-04-20 20:38 | 32.02412 | 69.93434 | 39891 ft | 485 kts | 217° |
| 2026-04-20 20:39 | 31.96650 | 69.89312 | 39918 ft | 485 kts | 217° |
| 2026-04-20 20:39 | 31.90884 | 69.85193 | 39911 ft | 484 kts | 217° |
| 2026-04-20 20:40 | 31.85149 | 69.81102 | 39922 ft | 486 kts | 217° |
| 2026-04-20 20:40 | 31.79346 | 69.76967 | 39957 ft | 488 kts | 217° |
| 2026-04-20 20:41 | 31.73519 | 69.72823 | 39940 ft | 489 kts | 217° |
| 2026-04-20 20:41 | 31.67681 | 69.68677 | 39957 ft | 491 kts | 217° |
| 2026-04-20 20:42 | 31.61821 | 69.64522 | 39970 ft | 491 kts | 217° |
| 2026-04-20 20:42 | 31.55998 | 69.60399 | 39963 ft | 492 kts | 217° |
| 2026-04-20 20:43 | 31.50091 | 69.56223 | 39964 ft | 492 kts | 217° |
| 2026-04-20 20:43 | 31.44229 | 69.52082 | 39955 ft | 491 kts | 217° |
| 2026-04-20 20:44 | 31.38404 | 69.47932 | 39970 ft | 487 kts | 220° |
| 2026-04-20 20:44 | 31.33188 | 69.43005 | 39966 ft | 477 kts | 230° |
| 2026-04-20 20:45 | 31.28705 | 69.37342 | 39970 ft | 473 kts | 233° |
| 2026-04-20 20:45 | 31.24322 | 69.31673 | 39969 ft | 472 kts | 233° |
| 2026-04-20 20:46 | 31.19869 | 69.25962 | 39968 ft | 472 kts | 233° |
| 2026-04-20 20:46 | 31.15420 | 69.20301 | 39951 ft | 472 kts | 233° |
| 2026-04-20 20:47 | 31.10965 | 69.14651 | 39956 ft | 472 kts | 233° |
| 2026-04-20 20:47 | 31.06512 | 69.09011 | 39963 ft | 472 kts | 233° |
| 2026-04-20 20:48 | 31.02811 | 69.04328 | 39958 ft | 472 kts | 233° |
| 2026-04-20 20:48 | 30.98459 | 68.98829 | 39970 ft | 472 kts | 233° |
| 2026-04-20 20:49 | 30.94000 | 68.93203 | 39961 ft | 472 kts | 233° |
| 2026-04-20 20:49 | 30.89530 | 68.87573 | 39959 ft | 472 kts | 233° |
| 2026-04-20 20:50 | 30.85071 | 68.81964 | 39960 ft | 472 kts | 232° |
| 2026-04-20 20:50 | 30.80607 | 68.76358 | 39945 ft | 471 kts | 232° |
| 2026-04-20 20:51 | 30.76155 | 68.70774 | 39954 ft | 470 kts | 232° |
| 2026-04-20 20:51 | 30.71702 | 68.65197 | 39954 ft | 470 kts | 232° |
| 2026-04-20 20:52 | 30.67252 | 68.59631 | 39952 ft | 470 kts | 232° |
| 2026-04-20 20:52 | 30.62775 | 68.54040 | 39954 ft | 470 kts | 232° |
| 2026-04-20 20:53 | 30.58350 | 68.48521 | 39951 ft | 469 kts | 232° |
| 2026-04-20 20:53 | 30.53912 | 68.42997 | 39956 ft | 467 kts | 232° |
| 2026-04-20 20:54 | 30.49472 | 68.37476 | 39963 ft | 467 kts | 232° |
| 2026-04-20 20:54 | 30.45186 | 68.32154 | 39962 ft | 466 kts | 231° |
| 2026-04-20 20:55 | 30.40757 | 68.26661 | 39955 ft | 466 kts | 231° |
| 2026-04-20 20:55 | 30.36326 | 68.21174 | 39962 ft | 466 kts | 231° |
| 2026-04-20 20:56 | 30.31879 | 68.15674 | 39963 ft | 466 kts | 231° |
| 2026-04-20 20:56 | 30.27448 | 68.10202 | 39942 ft | 465 kts | 231° |
| 2026-04-20 20:57 | 30.23004 | 68.04757 | 39922 ft | 466 kts | 231° |
| 2026-04-20 20:57 | 30.18640 | 67.99450 | 39935 ft | 465 kts | 231° |
| 2026-04-20 20:58 | 30.14186 | 67.94031 | 39890 ft | 465 kts | 231° |
| 2026-04-20 20:58 | 30.09733 | 67.88614 | 39906 ft | 465 kts | 231° |
| 2026-04-20 20:59 | 30.05295 | 67.83169 | 39902 ft | 465 kts | 231° |
| 2026-04-20 20:59 | 30.00896 | 67.77703 | 39846 ft | 465 kts | 231° |
| 2026-04-20 21:00 | 29.96488 | 67.72235 | 39867 ft | 466 kts | 231° |
| 2026-04-20 21:00 | 29.92066 | 67.66768 | 39871 ft | 466 kts | 231° |
| 2026-04-20 21:01 | 29.87635 | 67.61302 | 39828 ft | 466 kts | 231° |
| 2026-04-20 21:01 | 29.83199 | 67.55838 | 39845 ft | 466 kts | 231° |
| 2026-04-20 21:02 | 29.78772 | 67.50389 | 39844 ft | 466 kts | 231° |
| 2026-04-20 21:02 | 29.74334 | 67.44936 | 39852 ft | 466 kts | 231° |
| 2026-04-20 21:03 | 29.69906 | 67.39492 | 39871 ft | 466 kts | 231° |
| 2026-04-20 21:03 | 29.65480 | 67.34042 | 39873 ft | 466 kts | 231° |
| 2026-04-20 21:04 | 29.61041 | 67.28585 | 39872 ft | 467 kts | 231° |
| 2026-04-20 21:04 | 29.56592 | 67.23124 | 39906 ft | 467 kts | 231° |
| 2026-04-20 21:05 | 29.52143 | 67.17671 | 39897 ft | 467 kts | 231° |
| 2026-04-20 21:05 | 29.47701 | 67.12232 | 39940 ft | 467 kts | 231° |
| 2026-04-20 21:06 | 29.43244 | 67.06784 | 39932 ft | 468 kts | 231° |
| 2026-04-20 21:06 | 29.38790 | 67.01347 | 39966 ft | 467 kts | 231° |
| 2026-04-20 21:07 | 29.34405 | 66.96001 | 39955 ft | 467 kts | 231° |
| 2026-04-20 21:07 | 29.29952 | 66.90581 | 39968 ft | 467 kts | 231° |
| 2026-04-20 21:08 | 29.25497 | 66.85164 | 39979 ft | 467 kts | 231° |
| 2026-04-20 21:08 | 29.21036 | 66.79747 | 39977 ft | 467 kts | 231° |
| 2026-04-20 21:09 | 29.16588 | 66.74354 | 39985 ft | 468 kts | 231° |
| 2026-04-20 21:09 | 29.12117 | 66.68939 | 39977 ft | 468 kts | 231° |
| 2026-04-20 21:10 | 29.07640 | 66.63523 | 39979 ft | 468 kts | 231° |
| 2026-04-20 21:10 | 29.03162 | 66.58115 | 39980 ft | 468 kts | 231° |
| 2026-04-20 21:11 | 28.98697 | 66.52720 | 39986 ft | 467 kts | 230° |
| 2026-04-20 21:11 | 28.94232 | 66.47325 | 39965 ft | 466 kts | 230° |
| 2026-04-20 21:12 | 28.89780 | 66.41950 | 39970 ft | 465 kts | 230° |
| 2026-04-20 21:12 | 28.85358 | 66.36618 | 39963 ft | 464 kts | 230° |
| 2026-04-20 21:13 | 28.80909 | 66.31263 | 39963 ft | 464 kts | 230° |
| 2026-04-20 21:13 | 28.76466 | 66.25921 | 39952 ft | 464 kts | 230° |
| 2026-04-20 21:14 | 28.72014 | 66.20575 | 39955 ft | 465 kts | 230° |
| 2026-04-20 21:14 | 28.67556 | 66.15229 | 39955 ft | 466 kts | 230° |
| 2026-04-20 21:15 | 28.63078 | 66.09867 | 39930 ft | 467 kts | 230° |
| 2026-04-20 21:15 | 28.58590 | 66.04500 | 39933 ft | 468 kts | 230° |
| 2026-04-20 21:16 | 28.54308 | 65.99386 | 39912 ft | 469 kts | 230° |
| 2026-04-20 21:16 | 28.49806 | 65.94015 | 39911 ft | 469 kts | 230° |
| 2026-04-20 21:17 | 28.45308 | 65.88659 | 39913 ft | 468 kts | 230° |
| 2026-04-20 21:17 | 28.40832 | 65.83334 | 39878 ft | 468 kts | 230° |
| 2026-04-20 21:18 | 28.36307 | 65.77957 | 39892 ft | 468 kts | 230° |
| 2026-04-20 21:18 | 28.31834 | 65.72648 | 39870 ft | 468 kts | 230° |
| 2026-04-20 21:19 | 28.27324 | 65.67304 | 39870 ft | 469 kts | 230° |
| 2026-04-20 21:20 | 28.21284 | 65.60157 | 39854 ft | 469 kts | 230° |
| 2026-04-20 21:20 | 28.16797 | 65.54856 | 39855 ft | 468 kts | 230° |
| 2026-04-20 21:21 | 28.12252 | 65.49492 | 39856 ft | 468 kts | 230° |
| 2026-04-20 21:21 | 28.07742 | 65.44177 | 39846 ft | 467 kts | 229° |
| 2026-04-20 21:22 | 28.03264 | 65.38906 | 39862 ft | 467 kts | 229° |
| 2026-04-20 21:22 | 27.98767 | 65.33618 | 39848 ft | 467 kts | 229° |
| 2026-04-20 21:23 | 27.94255 | 65.28316 | 39858 ft | 468 kts | 229° |
| 2026-04-20 21:23 | 27.89735 | 65.23012 | 39849 ft | 468 kts | 229° |
| 2026-04-20 21:24 | 27.85207 | 65.17706 | 39847 ft | 468 kts | 229° |
| 2026-04-20 21:24 | 27.80683 | 65.12410 | 39885 ft | 468 kts | 229° |
| 2026-04-20 21:25 | 27.76159 | 65.07121 | 39860 ft | 468 kts | 229° |
| 2026-04-20 21:25 | 27.71656 | 65.01864 | 39852 ft | 468 kts | 229° |
| 2026-04-20 21:26 | 27.67200 | 64.96668 | 39849 ft | 469 kts | 229° |
| 2026-04-20 21:26 | 27.62646 | 64.91363 | 39876 ft | 469 kts | 229° |
| 2026-04-20 21:27 | 27.58068 | 64.86038 | 39880 ft | 470 kts | 229° |
| 2026-04-20 21:27 | 27.53535 | 64.80773 | 39881 ft | 470 kts | 229° |
| 2026-04-20 21:28 | 27.48970 | 64.75478 | 39891 ft | 471 kts | 229° |
| 2026-04-20 21:28 | 27.44405 | 64.70189 | 39888 ft | 471 kts | 229° |
| 2026-04-20 21:29 | 27.39837 | 64.64901 | 39883 ft | 471 kts | 229° |
| 2026-04-20 21:29 | 27.35270 | 64.59624 | 39902 ft | 470 kts | 229° |
| 2026-04-20 21:30 | 27.30698 | 64.54346 | 39899 ft | 470 kts | 229° |
| 2026-04-20 21:30 | 27.26128 | 64.49076 | 39903 ft | 471 kts | 229° |
| 2026-04-20 21:31 | 27.21550 | 64.43805 | 39910 ft | 471 kts | 228° |
| 2026-04-20 21:31 | 27.16966 | 64.38534 | 39907 ft | 471 kts | 228° |
| 2026-04-20 21:32 | 27.12408 | 64.33299 | 39889 ft | 471 kts | 228° |
| 2026-04-20 21:32 | 27.07824 | 64.28039 | 39910 ft | 471 kts | 228° |
| 2026-04-20 21:33 | 27.03236 | 64.22781 | 39901 ft | 471 kts | 228° |
| 2026-04-20 21:33 | 26.98655 | 64.17537 | 39904 ft | 472 kts | 228° |
| 2026-04-20 21:34 | 26.94096 | 64.12238 | 39907 ft | 471 kts | 230° |
| 2026-04-20 21:34 | 26.89737 | 64.06741 | 39902 ft | 472 kts | 231° |
| 2026-04-20 21:35 | 26.85412 | 64.01203 | 39900 ft | 472 kts | 231° |
| 2026-04-20 21:35 | 26.81159 | 63.95788 | 39901 ft | 472 kts | 231° |
| 2026-04-20 21:36 | 26.76829 | 63.90309 | 39892 ft | 473 kts | 231° |
| 2026-04-20 21:36 | 26.72461 | 63.84797 | 39896 ft | 473 kts | 231° |
| 2026-04-20 21:37 | 26.68098 | 63.79298 | 39894 ft | 472 kts | 231° |
| 2026-04-20 21:37 | 26.62361 | 63.72074 | 39882 ft | 473 kts | 230° |
| 2026-04-20 21:38 | 26.44854 | 63.50104 | 39888 ft | 474 kts | 230° |
| 2026-04-20 21:38 | 26.21546 | 63.21013 | 39851 ft | 475 kts | 230° |
| 2026-04-20 21:39 | 25.87658 | 62.79019 | 39836 ft | 474 kts | 229° |
| 2026-04-20 21:39 | 25.52425 | 62.35646 | 39840 ft | 472 kts | 229° |
| 2026-04-20 21:40 | 25.21128 | 61.97463 | 39812 ft | 468 kts | 229° |
| 2026-04-20 21:40 | 25.02960 | 61.71452 | 39848 ft | 461 kts | 246° |
| 2026-04-20 21:41 | 24.82771 | 61.21059 | 39831 ft | 457 kts | 246° |
| 2026-04-20 21:41 | 24.62424 | 60.71926 | 39815 ft | 456 kts | 246° |
| 2026-04-20 21:42 | 24.40901 | 60.22355 | 39811 ft | 459 kts | 246° |
| 2026-04-20 21:42 | 24.19285 | 59.73218 | 39879 ft | 479 kts | 247° |
| 2026-04-20 21:43 | 24.00168 | 59.30232 | 39787 ft | 476 kts | 249° |
| 2026-04-20 21:43 | 23.97308 | 59.23808 | 39795 ft | 468 kts | 249° |
| 2026-04-20 21:44 | 23.94554 | 59.17388 | 39795 ft | 460 kts | 257° |
| 2026-04-20 21:44 | 23.93931 | 59.14009 | 39804 ft | 449 kts | 271° |
| 2026-04-20 21:44 | 23.93988 | 59.10629 | 39810 ft | 444 kts | 281° |
| 2026-04-20 21:44 | 23.94675 | 59.07366 | 39802 ft | 436 kts | 292° |
| 2026-04-20 21:45 | 23.95706 | 59.04240 | 39804 ft | 438 kts | 293° |
| 2026-04-20 21:45 | 23.97774 | 58.98096 | 39801 ft | 441 kts | 293° |
| 2026-04-20 21:46 | 23.99850 | 58.91765 | 39800 ft | 443 kts | 292° |
| 2026-04-20 21:46 | 24.01898 | 58.85393 | 39807 ft | 444 kts | 292° |
| 2026-04-20 21:47 | 24.03936 | 58.79012 | 39798 ft | 444 kts | 292° |
| 2026-04-20 21:47 | 24.05959 | 58.72674 | 39800 ft | 444 kts | 292° |
| 2026-04-20 21:48 | 24.07993 | 58.66293 | 39805 ft | 443 kts | 292° |
| 2026-04-20 21:48 | 24.10030 | 58.59896 | 39801 ft | 443 kts | 292° |
| 2026-04-20 21:49 | 24.12048 | 58.53541 | 39800 ft | 442 kts | 292° |
| 2026-04-20 21:49 | 24.14057 | 58.47191 | 39790 ft | 441 kts | 292° |
| 2026-04-20 21:50 | 24.16059 | 58.40851 | 39801 ft | 439 kts | 292° |
| 2026-04-20 21:50 | 24.18038 | 58.34576 | 39806 ft | 438 kts | 291° |
| 2026-04-20 21:51 | 24.19703 | 58.29288 | 39803 ft | 437 kts | 291° |
| 2026-04-20 21:51 | 24.21935 | 58.22191 | 39805 ft | 437 kts | 291° |
| 2026-04-20 21:52 | 24.23911 | 58.15897 | 39808 ft | 436 kts | 291° |
| 2026-04-20 21:52 | 24.25874 | 58.09938 | 39794 ft | 434 kts | 291° |
| 2026-04-20 21:53 | 24.27783 | 58.03663 | 39800 ft | 434 kts | 291° |
| 2026-04-20 21:53 | 24.31900 | 57.90329 | 39819 ft | 432 kts | 291° |
| 2026-04-20 21:54 | 24.39654 | 57.65371 | 39799 ft | 432 kts | 291° |
| 2026-04-20 21:54 | 24.46049 | 57.44668 | 39798 ft | 429 kts | 291° |
| 2026-04-20 21:55 | 24.53601 | 57.20106 | 39586 ft | 405 kts | 292° |
| 2026-04-20 21:55 | 24.54551 | 57.17002 | 38867 ft | 399 kts | 292° |
| 2026-04-20 21:55 | 24.55439 | 57.14106 | 38108 ft | 400 kts | 292° |
| 2026-04-20 21:55 | 24.56323 | 57.11225 | 37300 ft | 399 kts | 291° |
| 2026-04-20 21:56 | 24.57217 | 57.08311 | 36498 ft | 409 kts | 291° |
| 2026-04-20 21:56 | 24.58153 | 57.05261 | 35647 ft | 433 kts | 290° |
| 2026-04-20 21:56 | 24.61411 | 56.94567 | 32158 ft | 467 kts | 288° |
| 2026-04-20 21:56 | 24.66125 | 56.81291 | 27997 ft | 464 kts | 298° |
| 2026-04-20 21:57 | 24.72437 | 56.69974 | 24748 ft | 448 kts | 300° |
| 2026-04-20 21:57 | 24.74053 | 56.67051 | 23857 ft | 446 kts | 299° |
| 2026-04-20 21:57 | 24.76284 | 56.63002 | 22532 ft | 398 kts | 299° |
| 2026-04-20 21:57 | 24.77680 | 56.60459 | 21815 ft | 381 kts | 299° |
| 2026-04-20 21:58 | 24.79018 | 56.58015 | 21136 ft | 377 kts | 299° |
| 2026-04-20 21:58 | 24.80393 | 56.55497 | 20466 ft | 396 kts | 299° |
| 2026-04-20 21:58 | 24.84370 | 56.48228 | 18551 ft | 410 kts | 300° |
| 2026-04-20 21:58 | 24.87475 | 56.42100 | 16793 ft | 367 kts | 288° |
| 2026-04-20 21:59 | 24.88112 | 56.39371 | 16189 ft | 369 kts | 280° |
| 2026-04-20 21:59 | 24.88415 | 56.36560 | 15572 ft | 372 kts | 272° |
| 2026-04-20 21:59 | 24.88305 | 56.33701 | 14964 ft | 377 kts | 267° |
| 2026-04-20 21:59 | 24.88114 | 56.30777 | 14333 ft | 384 kts | 267° |
| 2026-04-20 22:00 | 24.88025 | 56.27862 | 13762 ft | 378 kts | 275° |
| 2026-04-20 22:00 | 24.88453 | 56.25025 | 13197 ft | 373 kts | 286° |
| 2026-04-20 22:00 | 24.89310 | 56.22385 | 13000 ft | 358 kts | 296° |
| 2026-04-20 22:00 | 24.90471 | 56.20025 | 12842 ft | 344 kts | 301° |
| 2026-04-20 22:01 | 24.91648 | 56.17784 | 12696 ft | 331 kts | 301° |
| 2026-04-20 22:01 | 24.92782 | 56.15616 | 12554 ft | 319 kts | 301° |
| 2026-04-20 22:01 | 24.93849 | 56.13553 | 12428 ft | 308 kts | 301° |
| 2026-04-20 22:01 | 24.94895 | 56.11515 | 12297 ft | 297 kts | 300° |
| 2026-04-20 22:02 | 24.95896 | 56.09555 | 12172 ft | 287 kts | 300° |
| 2026-04-20 22:02 | 24.96855 | 56.07674 | 12059 ft | 277 kts | 300° |
| 2026-04-20 22:02 | 24.97883 | 56.05945 | 11918 ft | 266 kts | 310° |
| 2026-04-20 22:02 | 24.99110 | 56.04446 | 11794 ft | 261 kts | 314° |
| 2026-04-20 22:03 | 25.00372 | 56.02990 | 11664 ft | 261 kts | 314° |
| 2026-04-20 22:03 | 25.01668 | 56.01474 | 11528 ft | 265 kts | 313° |
| 2026-04-20 22:03 | 25.02917 | 55.99984 | 11393 ft | 266 kts | 313° |
| 2026-04-20 22:03 | 25.04141 | 55.98509 | 11251 ft | 266 kts | 313° |
| 2026-04-20 22:04 | 25.05386 | 55.97002 | 11097 ft | 265 kts | 313° |
| 2026-04-20 22:04 | 25.06627 | 55.95494 | 10979 ft | 263 kts | 313° |
| 2026-04-20 22:04 | 25.07851 | 55.93994 | 10830 ft | 262 kts | 313° |
| 2026-04-20 22:04 | 25.09068 | 55.92501 | 10718 ft | 261 kts | 313° |
| 2026-04-20 22:05 | 25.10265 | 55.91030 | 10595 ft | 260 kts | 313° |
| 2026-04-20 22:05 | 25.11486 | 55.89531 | 10453 ft | 259 kts | 313° |
| 2026-04-20 22:05 | 25.12670 | 55.88077 | 10337 ft | 258 kts | 313° |
| 2026-04-20 22:05 | 25.13868 | 55.86607 | 10197 ft | 257 kts | 312° |
| 2026-04-20 22:06 | 25.15073 | 55.85127 | 10089 ft | 256 kts | 313° |
| 2026-04-20 22:06 | 25.16192 | 55.83599 | 9856 ft | 258 kts | 304° |
| 2026-04-20 22:06 | 25.17127 | 55.81921 | 9614 ft | 257 kts | 302° |
| 2026-04-20 22:06 | 25.18037 | 55.80229 | 9334 ft | 255 kts | 302° |
| 2026-04-20 22:07 | 25.18949 | 55.78557 | 9057 ft | 252 kts | 302° |
| 2026-04-20 22:07 | 25.19851 | 55.76906 | 8789 ft | 250 kts | 302° |
| 2026-04-20 22:07 | 25.20753 | 55.75271 | 8545 ft | 250 kts | 303° |
| 2026-04-20 22:07 | 25.21668 | 55.73622 | 8285 ft | 253 kts | 303° |
| 2026-04-20 22:08 | 25.22586 | 55.71970 | 8020 ft | 252 kts | 303° |
| 2026-04-20 22:08 | 25.23492 | 55.70344 | 7772 ft | 251 kts | 303° |
| 2026-04-20 22:08 | 25.24427 | 55.68672 | 7538 ft | 252 kts | 303° |
| 2026-04-20 22:08 | 25.25349 | 55.67022 | 7287 ft | 253 kts | 303° |
| 2026-04-20 22:09 | 25.26263 | 55.65387 | 7041 ft | 253 kts | 303° |
| 2026-04-20 22:09 | 25.27186 | 55.63729 | 6793 ft | 253 kts | 303° |
| 2026-04-20 22:09 | 25.28110 | 55.62070 | 6560 ft | 253 kts | 303° |
| 2026-04-20 22:09 | 25.28950 | 55.60378 | 6290 ft | 250 kts | 290° |
| 2026-04-20 22:10 | 25.29066 | 55.58465 | 6056 ft | 254 kts | 260° |
| 2026-04-20 22:10 | 25.28339 | 55.56697 | 5964 ft | 258 kts | 235° |
| 2026-04-20 22:10 | 25.26986 | 55.55371 | 5856 ft | 266 kts | 209° |
| 2026-04-20 22:10 | 25.25191 | 55.54897 | 5755 ft | 271 kts | 177° |
| 2026-04-20 22:11 | 25.23405 | 55.55480 | 5655 ft | 269 kts | 146° |
| 2026-04-20 22:11 | 25.22106 | 55.56923 | 5567 ft | 262 kts | 121° |
| 2026-04-20 22:11 | 25.21156 | 55.58621 | 5472 ft | 261 kts | 120° |
| 2026-04-20 22:11 | 25.20203 | 55.60350 | 5389 ft | 262 kts | 120° |
| 2026-04-20 22:12 | 25.19256 | 55.62078 | 5303 ft | 263 kts | 119° |
| 2026-04-20 22:12 | 25.18303 | 55.63808 | 5206 ft | 264 kts | 120° |
| 2026-04-20 22:12 | 25.17344 | 55.65539 | 5115 ft | 264 kts | 120° |
| 2026-04-20 22:12 | 25.16383 | 55.67267 | 5025 ft | 265 kts | 120° |
| 2026-04-20 22:13 | 25.15419 | 55.69001 | 4933 ft | 265 kts | 120° |
| 2026-04-20 22:13 | 25.14453 | 55.70733 | 4831 ft | 265 kts | 120° |
| 2026-04-20 22:13 | 25.13490 | 55.72459 | 4754 ft | 264 kts | 120° |
| 2026-04-20 22:13 | 25.12524 | 55.74189 | 4665 ft | 264 kts | 120° |
| 2026-04-20 22:14 | 25.11560 | 55.75914 | 4575 ft | 263 kts | 120° |
| 2026-04-20 22:14 | 25.10605 | 55.77622 | 4471 ft | 262 kts | 120° |
| 2026-04-20 22:14 | 25.09652 | 55.79326 | 4382 ft | 260 kts | 120° |
| 2026-04-20 22:14 | 25.08706 | 55.81017 | 4286 ft | 258 kts | 120° |
| 2026-04-20 22:15 | 25.07763 | 55.82700 | 4182 ft | 257 kts | 120° |
| 2026-04-20 22:15 | 25.06675 | 55.84222 | 4087 ft | 255 kts | 142° |
| 2026-04-20 22:15 | 25.05029 | 55.84967 | 4037 ft | 261 kts | 174° |
| 2026-04-20 22:15 | 25.03256 | 55.84690 | 3949 ft | 262 kts | 205° |
| 2026-04-20 22:16 | 25.01799 | 55.83498 | 3834 ft | 258 kts | 236° |
| 2026-04-20 22:16 | 25.01127 | 55.81713 | 3765 ft | 252 kts | 265° |
| 2026-04-20 22:16 | 25.01269 | 55.79810 | 3679 ft | 247 kts | 288° |
| 2026-04-20 22:16 | 25.01980 | 55.78122 | 3594 ft | 243 kts | 302° |
| 2026-04-20 22:17 | 25.02896 | 55.76551 | 3507 ft | 244 kts | 306° |
| 2026-04-20 22:17 | 25.03847 | 55.75000 | 3416 ft | 245 kts | 305° |
| 2026-04-20 22:17 | 25.04771 | 55.73421 | 3332 ft | 244 kts | 304° |
| 2026-04-20 22:17 | 25.05670 | 55.71836 | 3251 ft | 242 kts | 303° |
| 2026-04-20 22:18 | 25.06537 | 55.70283 | 3219 ft | 231 kts | 303° |
| 2026-04-20 22:18 | 25.07358 | 55.68805 | 3083 ft | 221 kts | 303° |
| 2026-04-20 22:18 | 25.08141 | 55.67392 | 2998 ft | 210 kts | 302° |
| 2026-04-20 22:18 | 25.08885 | 55.66050 | 2916 ft | 199 kts | 302° |
| 2026-04-20 22:19 | 25.09594 | 55.64771 | 2830 ft | 193 kts | 302° |
| 2026-04-20 22:19 | 25.10290 | 55.63516 | 2786 ft | 191 kts | 302° |
| 2026-04-20 22:19 | 25.10987 | 55.62259 | 2727 ft | 193 kts | 302° |
| 2026-04-20 22:19 | 25.11674 | 55.61017 | 2658 ft | 191 kts | 302° |
| 2026-04-20 22:20 | 25.12376 | 55.59751 | 2589 ft | 192 kts | 302° |
| 2026-04-20 22:20 | 25.13076 | 55.58488 | 2525 ft | 193 kts | 302° |
| 2026-04-20 22:20 | 25.13778 | 55.57220 | 2458 ft | 193 kts | 302° |
| 2026-04-20 22:20 | 25.14473 | 55.55963 | 2409 ft | 192 kts | 302° |
| 2026-04-20 22:21 | 25.15169 | 55.54707 | 2410 ft | 192 kts | 302° |
| 2026-04-20 22:21 | 25.15865 | 55.53449 | 2410 ft | 192 kts | 302° |
| 2026-04-20 22:21 | 25.16558 | 55.52197 | 2418 ft | 187 kts | 302° |
| 2026-04-20 22:21 | 25.16989 | 55.51417 | 2399 ft | 173 kts | 302° |
| 2026-04-20 22:22 | 25.17780 | 55.49988 | 2151 ft | 157 kts | 302° |
| 2026-04-20 22:22 | 25.18162 | 55.49297 | 2011 ft | 154 kts | 302° |
| 2026-04-20 22:22 | 25.18715 | 55.48298 | 1802 ft | 149 kts | 302° |
| 2026-04-20 22:22 | 25.19236 | 55.47356 | 1649 ft | 141 kts | 302° |
| 2026-04-20 22:23 | 25.19751 | 55.46425 | 1461 ft | 142 kts | 302° |
| 2026-04-20 22:23 | 25.20263 | 55.45494 | 1255 ft | 142 kts | 301° |
| 2026-04-20 22:23 | 25.20766 | 55.44561 | 1044 ft | 140 kts | 301° |
| 2026-04-20 22:23 | 25.21252 | 55.43653 | 886 ft | 135 kts | 301° |
| 2026-04-20 22:24 | 25.21734 | 55.42784 | 720 ft | 133 kts | 301° |
| 2026-04-20 22:24 | 25.22236 | 55.41889 | 591 ft | 138 kts | 301° |
| 2026-04-20 22:24 | 25.22744 | 55.40978 | 409 ft | 140 kts | 301° |
| 2026-04-20 22:24 | 25.23262 | 55.40058 | 246 ft | 142 kts | 301° |
| 2026-04-20 22:25 | 25.23785 | 55.39128 | 91 ft | 138 kts | 302° |
| 2026-04-20 22:25 | 25.24242 | 55.38311 | 33 ft | 106 kts | 302° |
| 2026-04-20 22:25 | 25.24532 | 55.37793 | 21 ft | 52 kts | 301° |
| 2026-04-20 22:25 | 25.24609 | 55.37552 | 18 ft | 34 kts | 282° |
| 2026-04-20 22:26 | 25.24586 | 55.37409 | 21 ft | 10 kts | 214° |
| 2026-04-20 22:26 | 25.24531 | 55.37436 | 34 ft | 10 kts | 121° |
| 2026-04-20 22:26 | 25.24497 | 55.37497 | 35 ft | 10 kts | 122° |